<?xml version="1.0" encoding="UTF-8" standalone="no" ?>
<gpx xmlns="http://www.topografix.com/GPX/1/1" xmlns:xsi="http://www.w3.org/2001/XMLSchema-instance" xsi:schemaLocation="http://www.topografix.com/GPX/1/1 http://www.topografix.com/GPX/1/1/gpx.xsd" version="1.1" creator="VisuGPX - https://www.visugpx.com">
  <metadata>
    <name>Lioux Rando</name>
  </metadata>
  <trk>
    <name><![CDATA[Lioux Rando]]></name>
    <trkseg>
      <trkpt lat="43.94529" lon="5.29408">
        <ele>281.86474253416</ele>
        <time>2021-07-13T15:32:49.000Z</time>
      </trkpt>
      <trkpt lat="43.94542" lon="5.29421">
        <ele>282.66003939965</ele>
        <time>2021-07-13T15:32:49.005Z</time>
      </trkpt>
      <trkpt lat="43.94593" lon="5.29494">
        <ele>283.84864579547</ele>
        <time>2021-07-13T15:32:49.035Z</time>
      </trkpt>
      <trkpt lat="43.94599" lon="5.29502">
        <ele>284.83235367337</ele>
        <time>2021-07-13T15:32:49.068Z</time>
      </trkpt>
      <trkpt lat="43.9461" lon="5.29494">
        <ele>286.00487268634</ele>
        <time>2021-07-13T15:32:49.105Z</time>
      </trkpt>
      <trkpt lat="43.94622" lon="5.29485">
        <ele>287.23800818208</ele>
        <time>2021-07-13T15:32:49.147Z</time>
      </trkpt>
      <trkpt lat="43.94627" lon="5.2948">
        <ele>288.28731040405</ele>
        <time>2021-07-13T15:32:49.191Z</time>
      </trkpt>
      <trkpt lat="43.94633" lon="5.29447">
        <ele>289.30803584975</ele>
        <time>2021-07-13T15:32:49.243Z</time>
      </trkpt>
      <trkpt lat="43.94639" lon="5.29395">
        <ele>290.34893650318</ele>
        <time>2021-07-13T15:32:49.307Z</time>
      </trkpt>
      <trkpt lat="43.94642" lon="5.29384">
        <ele>291.22368563123</ele>
        <time>2021-07-13T15:32:49.374Z</time>
      </trkpt>
      <trkpt lat="43.9465" lon="5.29369">
        <ele>292.0428742267</ele>
        <time>2021-07-13T15:32:49.446Z</time>
      </trkpt>
      <trkpt lat="43.94656" lon="5.29376">
        <ele>292.73588823777</ele>
        <time>2021-07-13T15:32:49.520Z</time>
      </trkpt>
      <trkpt lat="43.94661" lon="5.29377">
        <ele>293.32954428988</ele>
        <time>2021-07-13T15:32:49.596Z</time>
      </trkpt>
      <trkpt lat="43.94669" lon="5.29362">
        <ele>293.84927216848</ele>
        <time>2021-07-13T15:32:49.676Z</time>
      </trkpt>
      <trkpt lat="43.9467" lon="5.29358">
        <ele>294.12742300803</ele>
        <time>2021-07-13T15:32:49.757Z</time>
      </trkpt>
      <trkpt lat="43.94668" lon="5.29341">
        <ele>294.30487487072</ele>
        <time>2021-07-13T15:32:49.842Z</time>
      </trkpt>
      <trkpt lat="43.94669" lon="5.29307">
        <ele>294.33872050211</ele>
        <time>2021-07-13T15:32:49.936Z</time>
      </trkpt>
      <trkpt lat="43.94669" lon="5.29299">
        <ele>294.44976089519</ele>
        <time>2021-07-13T15:32:50.032Z</time>
      </trkpt>
      <trkpt lat="43.94665" lon="5.2929">
        <ele>294.64843391151</ele>
        <time>2021-07-13T15:32:50.130Z</time>
      </trkpt>
      <trkpt lat="43.94666" lon="5.29287">
        <ele>295.09001792964</ele>
        <time>2021-07-13T15:32:50.229Z</time>
      </trkpt>
      <trkpt lat="43.94674" lon="5.29281">
        <ele>295.80501727351</ele>
        <time>2021-07-13T15:32:50.331Z</time>
      </trkpt>
      <trkpt lat="43.94719" lon="5.293">
        <ele>297.21507227737</ele>
        <time>2021-07-13T15:32:50.448Z</time>
      </trkpt>
      <trkpt lat="43.94724" lon="5.29302">
        <ele>297.76629140535</ele>
        <time>2021-07-13T15:32:50.567Z</time>
      </trkpt>
      <trkpt lat="43.94724" lon="5.29302">
        <ele>303.8998250599</ele>
        <time>2021-07-13T15:32:50.686Z</time>
      </trkpt>
      <trkpt lat="43.94771" lon="5.29329">
        <ele>307.27799450667</ele>
        <time>2021-07-13T15:32:50.822Z</time>
      </trkpt>
      <trkpt lat="43.94812" lon="5.29346">
        <ele>311.27559603617</ele>
        <time>2021-07-13T15:32:50.973Z</time>
      </trkpt>
      <trkpt lat="43.94848" lon="5.29355">
        <ele>315.3692891255</ele>
        <time>2021-07-13T15:32:51.136Z</time>
      </trkpt>
      <trkpt lat="43.94887" lon="5.29348">
        <ele>319.42358218045</ele>
        <time>2021-07-13T15:32:51.312Z</time>
      </trkpt>
      <trkpt lat="43.94902" lon="5.29347">
        <ele>322.85731796142</ele>
        <time>2021-07-13T15:32:51.493Z</time>
      </trkpt>
      <trkpt lat="43.9492" lon="5.29362">
        <ele>326.05510900963</ele>
        <time>2021-07-13T15:32:51.681Z</time>
      </trkpt>
      <trkpt lat="43.94942" lon="5.29355">
        <ele>329.06303704303</ele>
        <time>2021-07-13T15:32:51.876Z</time>
      </trkpt>
      <trkpt lat="43.9496" lon="5.29358">
        <ele>331.92185585741</ele>
        <time>2021-07-13T15:32:52.077Z</time>
      </trkpt>
      <trkpt lat="43.94969" lon="5.29352">
        <ele>334.44821955172</ele>
        <time>2021-07-13T15:32:52.282Z</time>
      </trkpt>
      <trkpt lat="43.94993" lon="5.29356">
        <ele>337.15507521038</ele>
        <time>2021-07-13T15:32:52.495Z</time>
      </trkpt>
      <trkpt lat="43.95009" lon="5.29351">
        <ele>339.66611530284</ele>
        <time>2021-07-13T15:32:52.713Z</time>
      </trkpt>
      <trkpt lat="43.95028" lon="5.29364">
        <ele>342.26562739718</ele>
        <time>2021-07-13T15:32:52.938Z</time>
      </trkpt>
      <trkpt lat="43.95047" lon="5.29361">
        <ele>344.79892521041</ele>
        <time>2021-07-13T15:32:53.170Z</time>
      </trkpt>
      <trkpt lat="43.95056" lon="5.29358">
        <ele>347.17723559312</ele>
        <time>2021-07-13T15:32:53.405Z</time>
      </trkpt>
      <trkpt lat="43.95056" lon="5.29358">
        <ele>349.4254988148</ele>
        <time>2021-07-13T15:32:53.640Z</time>
      </trkpt>
      <trkpt lat="43.95061" lon="5.29354">
        <ele>351.71685587226</ele>
        <time>2021-07-13T15:32:53.877Z</time>
      </trkpt>
      <trkpt lat="43.95083" lon="5.29363">
        <ele>354.32946656919</ele>
        <time>2021-07-13T15:32:54.121Z</time>
      </trkpt>
      <trkpt lat="43.95106" lon="5.29364">
        <ele>357.13265018531</ele>
        <time>2021-07-13T15:32:54.373Z</time>
      </trkpt>
      <trkpt lat="43.95127" lon="5.29352">
        <ele>359.94445820794</ele>
        <time>2021-07-13T15:32:54.632Z</time>
      </trkpt>
      <trkpt lat="43.95157" lon="5.29359">
        <ele>362.94705058721</ele>
        <time>2021-07-13T15:32:54.901Z</time>
      </trkpt>
      <trkpt lat="43.95195" lon="5.29353">
        <ele>366.02745564355</ele>
        <time>2021-07-13T15:32:55.183Z</time>
      </trkpt>
      <trkpt lat="43.95221" lon="5.29345">
        <ele>369.16261576231</ele>
        <time>2021-07-13T15:32:55.474Z</time>
      </trkpt>
      <trkpt lat="43.95246" lon="5.2934">
        <ele>372.28949236182</ele>
        <time>2021-07-13T15:32:55.773Z</time>
      </trkpt>
      <trkpt lat="43.95255" lon="5.29339">
        <ele>375.14404500164</ele>
        <time>2021-07-13T15:32:56.076Z</time>
      </trkpt>
      <trkpt lat="43.95268" lon="5.29346">
        <ele>377.99001227592</ele>
        <time>2021-07-13T15:32:56.383Z</time>
      </trkpt>
      <trkpt lat="43.95317" lon="5.29337">
        <ele>381.05365645012</ele>
        <time>2021-07-13T15:32:56.706Z</time>
      </trkpt>
      <trkpt lat="43.95364" lon="5.29334">
        <ele>383.89052022497</ele>
        <time>2021-07-13T15:32:57.045Z</time>
      </trkpt>
      <trkpt lat="43.95393" lon="5.2935">
        <ele>386.6353124887</ele>
        <time>2021-07-13T15:32:57.395Z</time>
      </trkpt>
      <trkpt lat="43.95392" lon="5.29341">
        <ele>388.75070057479</ele>
        <time>2021-07-13T15:32:57.747Z</time>
      </trkpt>
      <trkpt lat="43.95397" lon="5.29339">
        <ele>390.79267211739</ele>
        <time>2021-07-13T15:32:58.101Z</time>
      </trkpt>
      <trkpt lat="43.9544" lon="5.29356">
        <ele>393.14500867488</ele>
        <time>2021-07-13T15:32:58.469Z</time>
      </trkpt>
      <trkpt lat="43.95445" lon="5.2934">
        <ele>394.78786915759</ele>
        <time>2021-07-13T15:32:58.842Z</time>
      </trkpt>
      <trkpt lat="43.95453" lon="5.29339">
        <ele>396.474994192</ele>
        <time>2021-07-13T15:32:59.217Z</time>
      </trkpt>
      <trkpt lat="43.95459" lon="5.29333">
        <ele>398.02841525598</ele>
        <time>2021-07-13T15:32:59.595Z</time>
      </trkpt>
      <trkpt lat="43.95467" lon="5.29336">
        <ele>399.64464213502</ele>
        <time>2021-07-13T15:32:59.976Z</time>
      </trkpt>
      <trkpt lat="43.95474" lon="5.29326">
        <ele>401.14460571202</ele>
        <time>2021-07-13T15:33:00.360Z</time>
      </trkpt>
      <trkpt lat="43.95486" lon="5.29333">
        <ele>402.86010083456</ele>
        <time>2021-07-13T15:33:00.748Z</time>
      </trkpt>
      <trkpt lat="43.95496" lon="5.29348">
        <ele>404.64559630455</ele>
        <time>2021-07-13T15:33:01.141Z</time>
      </trkpt>
      <trkpt lat="43.95503" lon="5.29367">
        <ele>406.514855396</ele>
        <time>2021-07-13T15:33:01.539Z</time>
      </trkpt>
      <trkpt lat="43.95533" lon="5.29411">
        <ele>408.71704121795</ele>
        <time>2021-07-13T15:33:01.952Z</time>
      </trkpt>
      <trkpt lat="43.95566" lon="5.29419">
        <ele>410.52240804819</ele>
        <time>2021-07-13T15:33:02.376Z</time>
      </trkpt>
      <trkpt lat="43.95596" lon="5.29431">
        <ele>412.38472191586</ele>
        <time>2021-07-13T15:33:02.810Z</time>
      </trkpt>
      <trkpt lat="43.95596" lon="5.29431">
        <ele>414.19685562549</ele>
        <time>2021-07-13T15:33:03.244Z</time>
      </trkpt>
      <trkpt lat="43.95615" lon="5.29427">
        <ele>416.06418058876</ele>
        <time>2021-07-13T15:33:03.685Z</time>
      </trkpt>
      <trkpt lat="43.95649" lon="5.29448">
        <ele>418.25364156678</ele>
        <time>2021-07-13T15:33:04.138Z</time>
      </trkpt>
      <trkpt lat="43.95659" lon="5.29456">
        <ele>420.34058930993</ele>
        <time>2021-07-13T15:33:04.595Z</time>
      </trkpt>
      <trkpt lat="43.95676" lon="5.29457">
        <ele>422.4292780518</ele>
        <time>2021-07-13T15:33:05.058Z</time>
      </trkpt>
      <trkpt lat="43.95755" lon="5.29429">
        <ele>425.17864122885</ele>
        <time>2021-07-13T15:33:05.548Z</time>
      </trkpt>
      <trkpt lat="43.95785" lon="5.2945">
        <ele>427.46503209481</ele>
        <time>2021-07-13T15:33:06.049Z</time>
      </trkpt>
      <trkpt lat="43.95808" lon="5.2947">
        <ele>429.58451039639</ele>
        <time>2021-07-13T15:33:06.559Z</time>
      </trkpt>
      <trkpt lat="43.95828" lon="5.29464">
        <ele>431.39686448635</ele>
        <time>2021-07-13T15:33:07.076Z</time>
      </trkpt>
      <trkpt lat="43.95843" lon="5.2945">
        <ele>433.15182439322</ele>
        <time>2021-07-13T15:33:07.599Z</time>
      </trkpt>
      <trkpt lat="43.95847" lon="5.29439">
        <ele>434.69912797201</ele>
        <time>2021-07-13T15:33:08.125Z</time>
      </trkpt>
      <trkpt lat="43.95864" lon="5.29409">
        <ele>436.31567804006</ele>
        <time>2021-07-13T15:33:08.660Z</time>
      </trkpt>
      <trkpt lat="43.95876" lon="5.29399">
        <ele>437.91339159098</ele>
        <time>2021-07-13T15:33:09.200Z</time>
      </trkpt>
      <trkpt lat="43.95894" lon="5.29397">
        <ele>439.26863939892</ele>
        <time>2021-07-13T15:33:09.746Z</time>
      </trkpt>
      <trkpt lat="43.95909" lon="5.29403">
        <ele>440.66417509293</ele>
        <time>2021-07-13T15:33:10.297Z</time>
      </trkpt>
      <trkpt lat="43.95932" lon="5.29388">
        <ele>441.73732960931</ele>
        <time>2021-07-13T15:33:10.857Z</time>
      </trkpt>
      <trkpt lat="43.9594" lon="5.2938">
        <ele>442.9997122608</ele>
        <time>2021-07-13T15:33:11.420Z</time>
      </trkpt>
      <trkpt lat="43.95957" lon="5.29383">
        <ele>444.6579549197</ele>
        <time>2021-07-13T15:33:11.988Z</time>
      </trkpt>
      <trkpt lat="43.95981" lon="5.2938">
        <ele>446.31326119016</ele>
        <time>2021-07-13T15:33:12.564Z</time>
      </trkpt>
      <trkpt lat="43.96005" lon="5.29382">
        <ele>448.30859133585</ele>
        <time>2021-07-13T15:33:13.149Z</time>
      </trkpt>
      <trkpt lat="43.96017" lon="5.29389">
        <ele>450.52886273252</ele>
        <time>2021-07-13T15:33:13.738Z</time>
      </trkpt>
      <trkpt lat="43.96034" lon="5.2939">
        <ele>452.88524775756</ele>
        <time>2021-07-13T15:33:14.333Z</time>
      </trkpt>
      <trkpt lat="43.96052" lon="5.29384">
        <ele>455.41819158559</ele>
        <time>2021-07-13T15:33:14.933Z</time>
      </trkpt>
      <trkpt lat="43.9606" lon="5.29375">
        <ele>458.0612597167</ele>
        <time>2021-07-13T15:33:15.537Z</time>
      </trkpt>
      <trkpt lat="43.96074" lon="5.29367">
        <ele>461.00463628917</ele>
        <time>2021-07-13T15:33:16.146Z</time>
      </trkpt>
      <trkpt lat="43.96128" lon="5.29369">
        <ele>463.91322789232</ele>
        <time>2021-07-13T15:33:16.773Z</time>
      </trkpt>
      <trkpt lat="43.96138" lon="5.29362">
        <ele>465.93196189004</ele>
        <time>2021-07-13T15:33:17.404Z</time>
      </trkpt>
      <trkpt lat="43.96164" lon="5.29356">
        <ele>467.78695896058</ele>
        <time>2021-07-13T15:33:18.044Z</time>
      </trkpt>
      <trkpt lat="43.96195" lon="5.29383">
        <ele>469.01511699613</ele>
        <time>2021-07-13T15:33:18.696Z</time>
      </trkpt>
      <trkpt lat="43.96229" lon="5.29398">
        <ele>469.70622369646</ele>
        <time>2021-07-13T15:33:19.360Z</time>
      </trkpt>
      <trkpt lat="43.96253" lon="5.29399">
        <ele>469.39740923439</ele>
        <time>2021-07-13T15:33:20.032Z</time>
      </trkpt>
      <trkpt lat="43.96283" lon="5.29392">
        <ele>468.77683870451</ele>
        <time>2021-07-13T15:33:20.714Z</time>
      </trkpt>
      <trkpt lat="43.96298" lon="5.29379">
        <ele>456.47012247904</ele>
        <time>2021-07-13T15:33:21.402Z</time>
      </trkpt>
      <trkpt lat="43.96356" lon="5.29388">
        <ele>459.34746787088</ele>
        <time>2021-07-13T15:33:22.109Z</time>
      </trkpt>
      <trkpt lat="43.96392" lon="5.29391">
        <ele>461.53560343968</ele>
        <time>2021-07-13T15:33:22.828Z</time>
      </trkpt>
      <trkpt lat="43.96407" lon="5.29402">
        <ele>463.30480089552</ele>
        <time>2021-07-13T15:33:23.553Z</time>
      </trkpt>
      <trkpt lat="43.96438" lon="5.29438">
        <ele>464.92885308095</ele>
        <time>2021-07-13T15:33:24.291Z</time>
      </trkpt>
      <trkpt lat="43.9646" lon="5.29451">
        <ele>467.21721150208</ele>
        <time>2021-07-13T15:33:25.037Z</time>
      </trkpt>
      <trkpt lat="43.96474" lon="5.29457">
        <ele>469.26820872287</ele>
        <time>2021-07-13T15:33:25.788Z</time>
      </trkpt>
      <trkpt lat="43.96527" lon="5.2949">
        <ele>471.29739486034</ele>
        <time>2021-07-13T15:33:26.559Z</time>
      </trkpt>
      <trkpt lat="43.96548" lon="5.29507">
        <ele>473.96785732149</ele>
        <time>2021-07-13T15:33:27.338Z</time>
      </trkpt>
      <trkpt lat="43.96564" lon="5.29509">
        <ele>476.40815874218</ele>
        <time>2021-07-13T15:33:28.122Z</time>
      </trkpt>
      <trkpt lat="43.96599" lon="5.29496">
        <ele>479.16507338755</ele>
        <time>2021-07-13T15:33:28.918Z</time>
      </trkpt>
      <trkpt lat="43.96631" lon="5.29496">
        <ele>482.47693454059</ele>
        <time>2021-07-13T15:33:29.725Z</time>
      </trkpt>
      <trkpt lat="43.96679" lon="5.29476">
        <ele>486.27763725214</ele>
        <time>2021-07-13T15:33:30.549Z</time>
      </trkpt>
      <trkpt lat="43.96701" lon="5.29482">
        <ele>489.9929878339</ele>
        <time>2021-07-13T15:33:31.380Z</time>
      </trkpt>
      <trkpt lat="43.96716" lon="5.29468">
        <ele>493.28467523827</ele>
        <time>2021-07-13T15:33:32.217Z</time>
      </trkpt>
      <trkpt lat="43.96724" lon="5.29467">
        <ele>496.35943460111</ele>
        <time>2021-07-13T15:33:33.057Z</time>
      </trkpt>
      <trkpt lat="43.96733" lon="5.29449">
        <ele>499.36251027672</ele>
        <time>2021-07-13T15:33:33.902Z</time>
      </trkpt>
      <trkpt lat="43.96761" lon="5.29444">
        <ele>502.46640569318</ele>
        <time>2021-07-13T15:33:34.756Z</time>
      </trkpt>
      <trkpt lat="43.96827" lon="5.2948">
        <ele>506.24453276264</ele>
        <time>2021-07-13T15:33:35.634Z</time>
      </trkpt>
      <trkpt lat="43.96845" lon="5.29486">
        <ele>509.28167158914</ele>
        <time>2021-07-13T15:33:36.518Z</time>
      </trkpt>
      <trkpt lat="43.96877" lon="5.29472">
        <ele>511.80738421639</ele>
        <time>2021-07-13T15:33:37.413Z</time>
      </trkpt>
      <trkpt lat="43.96893" lon="5.29472">
        <ele>514.257912773</ele>
        <time>2021-07-13T15:33:38.314Z</time>
      </trkpt>
      <trkpt lat="43.96925" lon="5.29462">
        <ele>516.54736282422</ele>
        <time>2021-07-13T15:33:39.226Z</time>
      </trkpt>
      <trkpt lat="43.96958" lon="5.29468">
        <ele>518.47566614453</ele>
        <time>2021-07-13T15:33:40.149Z</time>
      </trkpt>
      <trkpt lat="43.97016" lon="5.2951">
        <ele>521.02104508359</ele>
        <time>2021-07-13T15:33:41.094Z</time>
      </trkpt>
      <trkpt lat="43.97045" lon="5.29514">
        <ele>522.91527080877</ele>
        <time>2021-07-13T15:33:42.048Z</time>
      </trkpt>
      <trkpt lat="43.97079" lon="5.29531">
        <ele>524.83364682115</ele>
        <time>2021-07-13T15:33:43.015Z</time>
      </trkpt>
      <trkpt lat="43.97105" lon="5.29551">
        <ele>526.56723173504</ele>
        <time>2021-07-13T15:33:43.991Z</time>
      </trkpt>
      <trkpt lat="43.97125" lon="5.29586">
        <ele>528.3476642024</ele>
        <time>2021-07-13T15:33:44.978Z</time>
      </trkpt>
      <trkpt lat="43.97141" lon="5.29629">
        <ele>530.19961458367</ele>
        <time>2021-07-13T15:33:45.977Z</time>
      </trkpt>
      <trkpt lat="43.9715" lon="5.29653">
        <ele>531.64891459105</ele>
        <time>2021-07-13T15:33:46.982Z</time>
      </trkpt>
      <trkpt lat="43.97163" lon="5.29676">
        <ele>532.88889992443</ele>
        <time>2021-07-13T15:33:47.994Z</time>
      </trkpt>
      <trkpt lat="43.97172" lon="5.29686">
        <ele>533.90659471345</ele>
        <time>2021-07-13T15:33:49.010Z</time>
      </trkpt>
      <trkpt lat="43.97204" lon="5.29704">
        <ele>534.52876266456</ele>
        <time>2021-07-13T15:33:50.038Z</time>
      </trkpt>
      <trkpt lat="43.97224" lon="5.29709">
        <ele>535.33241741609</ele>
        <time>2021-07-13T15:33:51.073Z</time>
      </trkpt>
      <trkpt lat="43.97248" lon="5.29704">
        <ele>536.19770092668</ele>
        <time>2021-07-13T15:33:52.116Z</time>
      </trkpt>
      <trkpt lat="43.97296" lon="5.2968">
        <ele>536.87157579949</ele>
        <time>2021-07-13T15:33:53.176Z</time>
      </trkpt>
      <trkpt lat="43.97301" lon="5.29675">
        <ele>537.44438307775</ele>
        <time>2021-07-13T15:33:54.238Z</time>
      </trkpt>
      <trkpt lat="43.97309" lon="5.29664">
        <ele>537.8924696159</ele>
        <time>2021-07-13T15:33:55.303Z</time>
      </trkpt>
      <trkpt lat="43.97315" lon="5.2966">
        <ele>538.33883813656</ele>
        <time>2021-07-13T15:33:56.371Z</time>
      </trkpt>
      <trkpt lat="43.9732" lon="5.29653">
        <ele>538.8966661901</ele>
        <time>2021-07-13T15:33:57.441Z</time>
      </trkpt>
      <trkpt lat="43.9732" lon="5.29653">
        <ele>539.39848982299</ele>
        <time>2021-07-13T15:33:58.511Z</time>
      </trkpt>
      <trkpt lat="43.97331" lon="5.29645">
        <ele>540.08927010621</ele>
        <time>2021-07-13T15:33:59.585Z</time>
      </trkpt>
      <trkpt lat="43.97337" lon="5.29639">
        <ele>540.67069127774</ele>
        <time>2021-07-13T15:34:00.662Z</time>
      </trkpt>
      <trkpt lat="43.9736" lon="5.29579">
        <ele>541.60653832151</ele>
        <time>2021-07-13T15:34:01.755Z</time>
      </trkpt>
      <trkpt lat="43.9737" lon="5.29567">
        <ele>542.37153103863</ele>
        <time>2021-07-13T15:34:02.853Z</time>
      </trkpt>
      <trkpt lat="43.97385" lon="5.29555">
        <ele>543.22899959911</ele>
        <time>2021-07-13T15:34:03.956Z</time>
      </trkpt>
      <trkpt lat="43.97402" lon="5.29547">
        <ele>543.98431596735</ele>
        <time>2021-07-13T15:34:05.065Z</time>
      </trkpt>
      <trkpt lat="43.97424" lon="5.29531">
        <ele>544.69922925508</ele>
        <time>2021-07-13T15:34:06.182Z</time>
      </trkpt>
      <trkpt lat="43.97442" lon="5.29524">
        <ele>545.46842255381</ele>
        <time>2021-07-13T15:34:07.306Z</time>
      </trkpt>
      <trkpt lat="43.97462" lon="5.2952">
        <ele>546.28923693833</ele>
        <time>2021-07-13T15:34:08.437Z</time>
      </trkpt>
      <trkpt lat="43.9749" lon="5.29516">
        <ele>547.04829683458</ele>
        <time>2021-07-13T15:34:09.577Z</time>
      </trkpt>
      <trkpt lat="43.97517" lon="5.29502">
        <ele>547.50850895253</ele>
        <time>2021-07-13T15:34:10.727Z</time>
      </trkpt>
      <trkpt lat="43.97531" lon="5.29499">
        <ele>548.11883687811</ele>
        <time>2021-07-13T15:34:11.881Z</time>
      </trkpt>
      <trkpt lat="43.97562" lon="5.29481">
        <ele>548.9745163847</ele>
        <time>2021-07-13T15:34:13.047Z</time>
      </trkpt>
      <trkpt lat="43.97581" lon="5.29447">
        <ele>549.73254486993</ele>
        <time>2021-07-13T15:34:14.223Z</time>
      </trkpt>
      <trkpt lat="43.97587" lon="5.29433">
        <ele>550.5399772763</ele>
        <time>2021-07-13T15:34:15.403Z</time>
      </trkpt>
      <trkpt lat="43.97586" lon="5.29419">
        <ele>551.47707531663</ele>
        <time>2021-07-13T15:34:16.586Z</time>
      </trkpt>
      <trkpt lat="43.97579" lon="5.29407">
        <ele>552.54465076259</ele>
        <time>2021-07-13T15:34:17.773Z</time>
      </trkpt>
      <trkpt lat="43.97556" lon="5.2939">
        <ele>554.11267531103</ele>
        <time>2021-07-13T15:34:18.969Z</time>
      </trkpt>
      <trkpt lat="43.97541" lon="5.29367">
        <ele>555.66606008634</ele>
        <time>2021-07-13T15:34:20.172Z</time>
      </trkpt>
      <trkpt lat="43.97536" lon="5.29354">
        <ele>556.92679035343</ele>
        <time>2021-07-13T15:34:21.378Z</time>
      </trkpt>
      <trkpt lat="43.97536" lon="5.29344">
        <ele>558.01356878886</ele>
        <time>2021-07-13T15:34:22.587Z</time>
      </trkpt>
      <trkpt lat="43.97542" lon="5.29329">
        <ele>558.95239017827</ele>
        <time>2021-07-13T15:34:23.800Z</time>
      </trkpt>
      <trkpt lat="43.9756" lon="5.29308">
        <ele>559.76568659355</ele>
        <time>2021-07-13T15:34:25.021Z</time>
      </trkpt>
      <trkpt lat="43.97616" lon="5.29306">
        <ele>560.54983426473</ele>
        <time>2021-07-13T15:34:26.260Z</time>
      </trkpt>
      <trkpt lat="43.97634" lon="5.29297">
        <ele>561.66491246729</ele>
        <time>2021-07-13T15:34:27.506Z</time>
      </trkpt>
      <trkpt lat="43.97661" lon="5.29291">
        <ele>562.91009231635</ele>
        <time>2021-07-13T15:34:28.761Z</time>
      </trkpt>
      <trkpt lat="43.97676" lon="5.29295">
        <ele>564.0720292369</ele>
        <time>2021-07-13T15:34:30.021Z</time>
      </trkpt>
      <trkpt lat="43.97683" lon="5.29305">
        <ele>565.1582278114</ele>
        <time>2021-07-13T15:34:31.284Z</time>
      </trkpt>
      <trkpt lat="43.97696" lon="5.29319">
        <ele>566.30975335873</ele>
        <time>2021-07-13T15:34:32.553Z</time>
      </trkpt>
      <trkpt lat="43.97727" lon="5.29341">
        <ele>567.48531058309</ele>
        <time>2021-07-13T15:34:33.834Z</time>
      </trkpt>
      <trkpt lat="43.97754" lon="5.29354">
        <ele>568.68626801595</ele>
        <time>2021-07-13T15:34:35.124Z</time>
      </trkpt>
      <trkpt lat="43.97816" lon="5.29376">
        <ele>570.28148296329</ele>
        <time>2021-07-13T15:34:36.435Z</time>
      </trkpt>
      <trkpt lat="43.97851" lon="5.29393">
        <ele>571.53010218276</ele>
        <time>2021-07-13T15:34:37.759Z</time>
      </trkpt>
      <trkpt lat="43.97879" lon="5.29421">
        <ele>573.17654161922</ele>
        <time>2021-07-13T15:34:39.094Z</time>
      </trkpt>
      <trkpt lat="43.97894" lon="5.29431">
        <ele>574.60604572515</ele>
        <time>2021-07-13T15:34:40.435Z</time>
      </trkpt>
      <trkpt lat="43.97907" lon="5.29433">
        <ele>575.93127627273</ele>
        <time>2021-07-13T15:34:41.780Z</time>
      </trkpt>
      <trkpt lat="43.97922" lon="5.29429">
        <ele>577.12195433876</ele>
        <time>2021-07-13T15:34:43.130Z</time>
      </trkpt>
      <trkpt lat="43.97962" lon="5.29427">
        <ele>578.59500215994</ele>
        <time>2021-07-13T15:34:44.494Z</time>
      </trkpt>
      <trkpt lat="43.97998" lon="5.29418">
        <ele>580.10272297692</ele>
        <time>2021-07-13T15:34:45.870Z</time>
      </trkpt>
      <trkpt lat="43.98014" lon="5.29408">
        <ele>581.5951394435</ele>
        <time>2021-07-13T15:34:47.252Z</time>
      </trkpt>
      <trkpt lat="43.98032" lon="5.294">
        <ele>583.03078090584</ele>
        <time>2021-07-13T15:34:48.640Z</time>
      </trkpt>
      <trkpt lat="43.98057" lon="5.29397">
        <ele>584.45280715647</ele>
        <time>2021-07-13T15:34:50.036Z</time>
      </trkpt>
      <trkpt lat="43.98078" lon="5.29388">
        <ele>585.97422332704</ele>
        <time>2021-07-13T15:34:51.440Z</time>
      </trkpt>
      <trkpt lat="43.98099" lon="5.29373">
        <ele>587.32679309122</ele>
        <time>2021-07-13T15:34:52.851Z</time>
      </trkpt>
      <trkpt lat="43.98124" lon="5.29348">
        <ele>588.61697009962</ele>
        <time>2021-07-13T15:34:54.273Z</time>
      </trkpt>
      <trkpt lat="43.9816" lon="5.29336">
        <ele>589.92967514402</ele>
        <time>2021-07-13T15:34:55.707Z</time>
      </trkpt>
      <trkpt lat="43.98198" lon="5.29332">
        <ele>591.26981455238</ele>
        <time>2021-07-13T15:34:57.154Z</time>
      </trkpt>
      <trkpt lat="43.98218" lon="5.29319">
        <ele>592.53612887094</ele>
        <time>2021-07-13T15:34:58.608Z</time>
      </trkpt>
      <trkpt lat="43.98238" lon="5.29304">
        <ele>593.81510207307</ele>
        <time>2021-07-13T15:35:00.070Z</time>
      </trkpt>
      <trkpt lat="43.98255" lon="5.29295">
        <ele>594.97712449205</ele>
        <time>2021-07-13T15:35:01.538Z</time>
      </trkpt>
      <trkpt lat="43.98313" lon="5.29284">
        <ele>596.18628219257</ele>
        <time>2021-07-13T15:35:03.025Z</time>
      </trkpt>
      <trkpt lat="43.98381" lon="5.29281">
        <ele>597.48395841434</ele>
        <time>2021-07-13T15:35:04.535Z</time>
      </trkpt>
      <trkpt lat="43.98391" lon="5.29277">
        <ele>598.53818147367</ele>
        <time>2021-07-13T15:35:06.049Z</time>
      </trkpt>
      <trkpt lat="43.98401" lon="5.29271">
        <ele>599.56440752725</ele>
        <time>2021-07-13T15:35:07.566Z</time>
      </trkpt>
      <trkpt lat="43.98412" lon="5.29261">
        <ele>600.6451147433</ele>
        <time>2021-07-13T15:35:09.087Z</time>
      </trkpt>
      <trkpt lat="43.98433" lon="5.29236">
        <ele>601.64396068957</ele>
        <time>2021-07-13T15:35:10.618Z</time>
      </trkpt>
      <trkpt lat="43.98457" lon="5.29214">
        <ele>602.61794535166</ele>
        <time>2021-07-13T15:35:12.158Z</time>
      </trkpt>
      <trkpt lat="43.98466" lon="5.29208">
        <ele>603.7410731502</ele>
        <time>2021-07-13T15:35:13.701Z</time>
      </trkpt>
      <trkpt lat="43.9849" lon="5.292">
        <ele>604.79566297135</ele>
        <time>2021-07-13T15:35:15.253Z</time>
      </trkpt>
      <trkpt lat="43.98512" lon="5.29187">
        <ele>605.74205823955</ele>
        <time>2021-07-13T15:35:16.813Z</time>
      </trkpt>
      <trkpt lat="43.98557" lon="5.29178">
        <ele>606.63313957313</ele>
        <time>2021-07-13T15:35:18.388Z</time>
      </trkpt>
      <trkpt lat="43.98575" lon="5.29164">
        <ele>607.41886800989</ele>
        <time>2021-07-13T15:35:19.970Z</time>
      </trkpt>
      <trkpt lat="43.98621" lon="5.29138">
        <ele>608.558046282</ele>
        <time>2021-07-13T15:35:21.568Z</time>
      </trkpt>
      <trkpt lat="43.98655" lon="5.29133">
        <ele>609.64021055271</ele>
        <time>2021-07-13T15:35:23.178Z</time>
      </trkpt>
      <trkpt lat="43.98679" lon="5.29125">
        <ele>610.56216040666</ele>
        <time>2021-07-13T15:35:24.796Z</time>
      </trkpt>
      <trkpt lat="43.98687" lon="5.29118">
        <ele>611.33651537956</ele>
        <time>2021-07-13T15:35:26.417Z</time>
      </trkpt>
      <trkpt lat="43.98695" lon="5.29105">
        <ele>612.06067860271</ele>
        <time>2021-07-13T15:35:28.042Z</time>
      </trkpt>
      <trkpt lat="43.98706" lon="5.29095">
        <ele>612.77052518</ele>
        <time>2021-07-13T15:35:29.672Z</time>
      </trkpt>
      <trkpt lat="43.98725" lon="5.29083">
        <ele>613.2672113349</ele>
        <time>2021-07-13T15:35:31.309Z</time>
      </trkpt>
      <trkpt lat="43.98748" lon="5.29075">
        <ele>613.68060900114</ele>
        <time>2021-07-13T15:35:32.953Z</time>
      </trkpt>
      <trkpt lat="43.98757" lon="5.2906">
        <ele>614.14401452712</ele>
        <time>2021-07-13T15:35:34.602Z</time>
      </trkpt>
      <trkpt lat="43.98769" lon="5.29022">
        <ele>614.63126871325</ele>
        <time>2021-07-13T15:35:36.261Z</time>
      </trkpt>
      <trkpt lat="43.98779" lon="5.29001">
        <ele>615.16596174184</ele>
        <time>2021-07-13T15:35:37.926Z</time>
      </trkpt>
      <trkpt lat="43.98784" lon="5.28993">
        <ele>615.53235021559</ele>
        <time>2021-07-13T15:35:39.594Z</time>
      </trkpt>
      <trkpt lat="43.98796" lon="5.2899">
        <ele>615.85968257061</ele>
        <time>2021-07-13T15:35:41.266Z</time>
      </trkpt>
      <trkpt lat="43.98805" lon="5.28992">
        <ele>616.18349126904</ele>
        <time>2021-07-13T15:35:42.941Z</time>
      </trkpt>
      <trkpt lat="43.9881" lon="5.28996">
        <ele>616.49979843473</ele>
        <time>2021-07-13T15:35:44.618Z</time>
      </trkpt>
      <trkpt lat="43.98822" lon="5.29011">
        <ele>616.84522590074</ele>
        <time>2021-07-13T15:35:46.300Z</time>
      </trkpt>
      <trkpt lat="43.9885" lon="5.29057">
        <ele>617.4567021858</ele>
        <time>2021-07-13T15:35:47.997Z</time>
      </trkpt>
      <trkpt lat="43.98866" lon="5.29078">
        <ele>618.1049315489</ele>
        <time>2021-07-13T15:35:49.701Z</time>
      </trkpt>
      <trkpt lat="43.98901" lon="5.29112">
        <ele>618.69880684464</ele>
        <time>2021-07-13T15:35:51.419Z</time>
      </trkpt>
      <trkpt lat="43.98931" lon="5.2917">
        <ele>619.32825616604</ele>
        <time>2021-07-13T15:35:53.155Z</time>
      </trkpt>
      <trkpt lat="43.98939" lon="5.29155">
        <ele>619.91301261943</ele>
        <time>2021-07-13T15:35:54.895Z</time>
      </trkpt>
      <trkpt lat="43.98942" lon="5.29143">
        <ele>620.66347265461</ele>
        <time>2021-07-13T15:35:56.638Z</time>
      </trkpt>
      <trkpt lat="43.98945" lon="5.29137">
        <ele>621.59974091886</ele>
        <time>2021-07-13T15:35:58.383Z</time>
      </trkpt>
      <trkpt lat="43.9895" lon="5.29132">
        <ele>622.71068464256</ele>
        <time>2021-07-13T15:36:00.130Z</time>
      </trkpt>
      <trkpt lat="43.98957" lon="5.2913">
        <ele>624.01687332383</ele>
        <time>2021-07-13T15:36:01.879Z</time>
      </trkpt>
      <trkpt lat="43.98975" lon="5.29134">
        <ele>625.71271366906</ele>
        <time>2021-07-13T15:36:03.634Z</time>
      </trkpt>
      <trkpt lat="43.98979" lon="5.29132">
        <ele>627.40339916032</ele>
        <time>2021-07-13T15:36:05.391Z</time>
      </trkpt>
      <trkpt lat="43.98983" lon="5.29126">
        <ele>629.30866387416</ele>
        <time>2021-07-13T15:36:07.150Z</time>
      </trkpt>
      <trkpt lat="43.98994" lon="5.29115">
        <ele>631.53698032012</ele>
        <time>2021-07-13T15:36:08.913Z</time>
      </trkpt>
      <trkpt lat="43.99006" lon="5.2911">
        <ele>633.85062227646</ele>
        <time>2021-07-13T15:36:10.681Z</time>
      </trkpt>
      <trkpt lat="43.99051" lon="5.29082">
        <ele>636.54699912231</ele>
        <time>2021-07-13T15:36:12.465Z</time>
      </trkpt>
      <trkpt lat="43.9906" lon="5.29069">
        <ele>639.24162664458</ele>
        <time>2021-07-13T15:36:14.253Z</time>
      </trkpt>
      <trkpt lat="43.99077" lon="5.29025">
        <ele>642.43268759582</ele>
        <time>2021-07-13T15:36:16.053Z</time>
      </trkpt>
      <trkpt lat="43.9909" lon="5.29">
        <ele>645.47112758978</ele>
        <time>2021-07-13T15:36:17.861Z</time>
      </trkpt>
      <trkpt lat="43.99101" lon="5.28997">
        <ele>648.47859178094</ele>
        <time>2021-07-13T15:36:19.672Z</time>
      </trkpt>
      <trkpt lat="43.99106" lon="5.28991">
        <ele>651.62609717801</ele>
        <time>2021-07-13T15:36:21.486Z</time>
      </trkpt>
      <trkpt lat="43.99146" lon="5.28978">
        <ele>655.06349747127</ele>
        <time>2021-07-13T15:36:23.313Z</time>
      </trkpt>
      <trkpt lat="43.99171" lon="5.28941">
        <ele>658.76362711952</ele>
        <time>2021-07-13T15:36:25.152Z</time>
      </trkpt>
      <trkpt lat="43.99199" lon="5.28924">
        <ele>662.39711731843</ele>
        <time>2021-07-13T15:36:27.002Z</time>
      </trkpt>
      <trkpt lat="43.9921" lon="5.28914">
        <ele>665.91734604267</ele>
        <time>2021-07-13T15:36:28.856Z</time>
      </trkpt>
      <trkpt lat="43.99215" lon="5.28904">
        <ele>669.49367943636</ele>
        <time>2021-07-13T15:36:30.713Z</time>
      </trkpt>
      <trkpt lat="43.99253" lon="5.28888">
        <ele>673.29849281704</ele>
        <time>2021-07-13T15:36:32.583Z</time>
      </trkpt>
      <trkpt lat="43.99264" lon="5.28877">
        <ele>676.65715861081</ele>
        <time>2021-07-13T15:36:34.458Z</time>
      </trkpt>
      <trkpt lat="43.99272" lon="5.28877">
        <ele>679.8915476778</ele>
        <time>2021-07-13T15:36:36.335Z</time>
      </trkpt>
      <trkpt lat="43.99289" lon="5.28865">
        <ele>683.19515381579</ele>
        <time>2021-07-13T15:36:38.219Z</time>
      </trkpt>
      <trkpt lat="43.99303" lon="5.28861">
        <ele>686.25577072984</ele>
        <time>2021-07-13T15:36:40.108Z</time>
      </trkpt>
      <trkpt lat="43.99313" lon="5.28863">
        <ele>689.05323848864</ele>
        <time>2021-07-13T15:36:42.000Z</time>
      </trkpt>
      <trkpt lat="43.99326" lon="5.28857">
        <ele>691.74331157068</ele>
        <time>2021-07-13T15:36:43.896Z</time>
      </trkpt>
      <trkpt lat="43.99332" lon="5.28849">
        <ele>694.23246557303</ele>
        <time>2021-07-13T15:36:45.795Z</time>
      </trkpt>
      <trkpt lat="43.99339" lon="5.28844">
        <ele>696.51422280254</ele>
        <time>2021-07-13T15:36:47.697Z</time>
      </trkpt>
      <trkpt lat="43.99346" lon="5.28844">
        <ele>698.54401512817</ele>
        <time>2021-07-13T15:36:49.601Z</time>
      </trkpt>
      <trkpt lat="43.99352" lon="5.2884">
        <ele>700.4669600044</ele>
        <time>2021-07-13T15:36:51.507Z</time>
      </trkpt>
      <trkpt lat="43.99368" lon="5.28838">
        <ele>702.2626947114</ele>
        <time>2021-07-13T15:36:53.419Z</time>
      </trkpt>
      <trkpt lat="43.99377" lon="5.28839">
        <ele>703.86134996065</ele>
        <time>2021-07-13T15:36:55.334Z</time>
      </trkpt>
      <trkpt lat="43.99385" lon="5.28845">
        <ele>705.37108334373</ele>
        <time>2021-07-13T15:36:57.252Z</time>
      </trkpt>
      <trkpt lat="43.99386" lon="5.28857">
        <ele>706.6528236982</ele>
        <time>2021-07-13T15:36:59.172Z</time>
      </trkpt>
      <trkpt lat="43.99389" lon="5.28866">
        <ele>707.89357106464</ele>
        <time>2021-07-13T15:37:01.095Z</time>
      </trkpt>
      <trkpt lat="43.99404" lon="5.28879">
        <ele>709.15765862557</ele>
        <time>2021-07-13T15:37:03.024Z</time>
      </trkpt>
      <trkpt lat="43.99411" lon="5.2888">
        <ele>709.91829166053</ele>
        <time>2021-07-13T15:37:04.955Z</time>
      </trkpt>
      <trkpt lat="43.99419" lon="5.28875">
        <ele>710.48713301191</ele>
        <time>2021-07-13T15:37:06.889Z</time>
      </trkpt>
      <trkpt lat="43.99421" lon="5.28865">
        <ele>710.83505315141</ele>
        <time>2021-07-13T15:37:08.826Z</time>
      </trkpt>
      <trkpt lat="43.9942" lon="5.2884">
        <ele>711.04138593189</ele>
        <time>2021-07-13T15:37:10.769Z</time>
      </trkpt>
      <trkpt lat="43.99409" lon="5.28822">
        <ele>711.28716502893</ele>
        <time>2021-07-13T15:37:12.717Z</time>
      </trkpt>
      <trkpt lat="43.99411" lon="5.28817">
        <ele>711.98818398439</ele>
        <time>2021-07-13T15:37:14.667Z</time>
      </trkpt>
      <trkpt lat="43.99415" lon="5.28814">
        <ele>712.798995617</ele>
        <time>2021-07-13T15:37:16.619Z</time>
      </trkpt>
      <trkpt lat="43.99429" lon="5.28814">
        <ele>713.83406698884</ele>
        <time>2021-07-13T15:37:18.575Z</time>
      </trkpt>
      <trkpt lat="43.99446" lon="5.28816">
        <ele>714.95847103469</ele>
        <time>2021-07-13T15:37:20.537Z</time>
      </trkpt>
      <trkpt lat="43.99463" lon="5.28816">
        <ele>716.10514736648</ele>
        <time>2021-07-13T15:37:22.505Z</time>
      </trkpt>
      <trkpt lat="43.9948" lon="5.2881">
        <ele>717.17123677678</ele>
        <time>2021-07-13T15:37:24.479Z</time>
      </trkpt>
      <trkpt lat="43.9948" lon="5.2881">
        <ele>718.32959966655</ele>
        <time>2021-07-13T15:37:26.453Z</time>
      </trkpt>
      <trkpt lat="43.99506" lon="5.28799">
        <ele>719.79432834738</ele>
        <time>2021-07-13T15:37:28.436Z</time>
      </trkpt>
      <trkpt lat="43.99524" lon="5.28796">
        <ele>721.55129435816</ele>
        <time>2021-07-13T15:37:30.425Z</time>
      </trkpt>
      <trkpt lat="43.99561" lon="5.28794">
        <ele>723.64749532948</ele>
        <time>2021-07-13T15:37:32.426Z</time>
      </trkpt>
      <trkpt lat="43.99571" lon="5.28788">
        <ele>725.96724417463</ele>
        <time>2021-07-13T15:37:34.430Z</time>
      </trkpt>
      <trkpt lat="43.9958" lon="5.28778">
        <ele>728.70330723444</ele>
        <time>2021-07-13T15:37:36.438Z</time>
      </trkpt>
      <trkpt lat="43.99603" lon="5.28743">
        <ele>732.08107486473</ele>
        <time>2021-07-13T15:37:38.458Z</time>
      </trkpt>
      <trkpt lat="43.99615" lon="5.28729">
        <ele>734.96740358044</ele>
        <time>2021-07-13T15:37:40.483Z</time>
      </trkpt>
      <trkpt lat="43.99627" lon="5.28711">
        <ele>737.9944481204</ele>
        <time>2021-07-13T15:37:42.514Z</time>
      </trkpt>
      <trkpt lat="43.99642" lon="5.287">
        <ele>741.10504929044</ele>
        <time>2021-07-13T15:37:44.551Z</time>
      </trkpt>
      <trkpt lat="43.99694" lon="5.28671">
        <ele>744.57373693979</ele>
        <time>2021-07-13T15:37:46.606Z</time>
      </trkpt>
      <trkpt lat="43.99703" lon="5.28667">
        <ele>746.87816892927</ele>
        <time>2021-07-13T15:37:48.664Z</time>
      </trkpt>
      <trkpt lat="43.99711" lon="5.28667">
        <ele>749.07817233318</ele>
        <time>2021-07-13T15:37:50.725Z</time>
      </trkpt>
      <trkpt lat="43.99715" lon="5.28671">
        <ele>751.10634566762</ele>
        <time>2021-07-13T15:37:52.788Z</time>
      </trkpt>
      <trkpt lat="43.99719" lon="5.28671">
        <ele>753.02949537849</ele>
        <time>2021-07-13T15:37:54.852Z</time>
      </trkpt>
      <trkpt lat="43.99728" lon="5.28658">
        <ele>754.92454826522</ele>
        <time>2021-07-13T15:37:56.920Z</time>
      </trkpt>
      <trkpt lat="43.99738" lon="5.28649">
        <ele>756.54901188597</ele>
        <time>2021-07-13T15:37:58.992Z</time>
      </trkpt>
      <trkpt lat="43.99748" lon="5.28631">
        <ele>757.87769321486</ele>
        <time>2021-07-13T15:38:01.070Z</time>
      </trkpt>
      <trkpt lat="43.99756" lon="5.28646">
        <ele>758.99754519746</ele>
        <time>2021-07-13T15:38:03.152Z</time>
      </trkpt>
      <trkpt lat="43.99756" lon="5.28646">
        <ele>759.42256641741</ele>
        <time>2021-07-13T15:38:05.234Z</time>
      </trkpt>
      <trkpt lat="43.99748" lon="5.28631">
        <ele>761.18012334081</ele>
        <time>2021-07-13T15:38:07.321Z</time>
      </trkpt>
      <trkpt lat="43.99742" lon="5.2862">
        <ele>763.55684518348</ele>
        <time>2021-07-13T15:38:09.411Z</time>
      </trkpt>
      <trkpt lat="43.99735" lon="5.28604">
        <ele>766.49741749125</ele>
        <time>2021-07-13T15:38:11.506Z</time>
      </trkpt>
      <trkpt lat="43.9968" lon="5.28504">
        <ele>771.01886633066</ele>
        <time>2021-07-13T15:38:13.631Z</time>
      </trkpt>
      <trkpt lat="43.99626" lon="5.28412">
        <ele>776.9296140453</ele>
        <time>2021-07-13T15:38:15.785Z</time>
      </trkpt>
      <trkpt lat="43.99631" lon="5.28378">
        <ele>781.08695319764</ele>
        <time>2021-07-13T15:38:17.947Z</time>
      </trkpt>
      <trkpt lat="43.99618" lon="5.27853">
        <ele>787.85188573679</ele>
        <time>2021-07-13T15:38:20.235Z</time>
      </trkpt>
      <trkpt lat="43.99609" lon="5.27827">
        <ele>790.47544730918</ele>
        <time>2021-07-13T15:38:22.530Z</time>
      </trkpt>
      <trkpt lat="43.9959" lon="5.27784">
        <ele>791.35931840572</ele>
        <time>2021-07-13T15:38:24.837Z</time>
      </trkpt>
      <trkpt lat="43.9948" lon="5.27557">
        <ele>789.85808380107</ele>
        <time>2021-07-13T15:38:27.210Z</time>
      </trkpt>
      <trkpt lat="43.99476" lon="5.27544">
        <ele>789.80826500131</ele>
        <time>2021-07-13T15:38:29.586Z</time>
      </trkpt>
      <trkpt lat="43.99472" lon="5.27524">
        <ele>789.50046086609</ele>
        <time>2021-07-13T15:38:31.968Z</time>
      </trkpt>
      <trkpt lat="43.99469" lon="5.27501">
        <ele>788.90065276718</ele>
        <time>2021-07-13T15:38:34.355Z</time>
      </trkpt>
      <trkpt lat="43.99469" lon="5.27485">
        <ele>788.18624126478</ele>
        <time>2021-07-13T15:38:36.746Z</time>
      </trkpt>
      <trkpt lat="43.99474" lon="5.27442">
        <ele>787.45363005251</ele>
        <time>2021-07-13T15:38:39.147Z</time>
      </trkpt>
      <trkpt lat="43.9948" lon="5.27413">
        <ele>787.02423168467</ele>
        <time>2021-07-13T15:38:41.556Z</time>
      </trkpt>
      <trkpt lat="43.99486" lon="5.27375">
        <ele>787.0091350605</ele>
        <time>2021-07-13T15:38:43.974Z</time>
      </trkpt>
      <trkpt lat="43.9951" lon="5.27225">
        <ele>787.04514279891</ele>
        <time>2021-07-13T15:38:46.429Z</time>
      </trkpt>
      <trkpt lat="43.9951" lon="5.27225">
        <ele>788.81184075111</ele>
        <time>2021-07-13T15:38:48.884Z</time>
      </trkpt>
      <trkpt lat="43.99514" lon="5.27205">
        <ele>788.50846741633</ele>
        <time>2021-07-13T15:38:51.344Z</time>
      </trkpt>
      <trkpt lat="43.99508" lon="5.27213">
        <ele>788.15940994124</ele>
        <time>2021-07-13T15:38:53.807Z</time>
      </trkpt>
      <trkpt lat="43.99492" lon="5.27224">
        <ele>787.63464627808</ele>
        <time>2021-07-13T15:38:56.275Z</time>
      </trkpt>
      <trkpt lat="43.99478" lon="5.2724">
        <ele>786.95878842478</ele>
        <time>2021-07-13T15:38:58.750Z</time>
      </trkpt>
      <trkpt lat="43.99474" lon="5.27199">
        <ele>785.57193377384</ele>
        <time>2021-07-13T15:39:01.234Z</time>
      </trkpt>
      <trkpt lat="43.99465" lon="5.27166">
        <ele>783.91073612808</ele>
        <time>2021-07-13T15:39:03.727Z</time>
      </trkpt>
      <trkpt lat="43.9946" lon="5.27142">
        <ele>781.99788297145</ele>
        <time>2021-07-13T15:39:06.226Z</time>
      </trkpt>
      <trkpt lat="43.99461" lon="5.27131">
        <ele>780.07218691143</ele>
        <time>2021-07-13T15:39:08.728Z</time>
      </trkpt>
      <trkpt lat="43.9946" lon="5.27125">
        <ele>777.91093343156</ele>
        <time>2021-07-13T15:39:11.231Z</time>
      </trkpt>
      <trkpt lat="43.99456" lon="5.27122">
        <ele>775.52211178226</ele>
        <time>2021-07-13T15:39:13.736Z</time>
      </trkpt>
      <trkpt lat="43.99444" lon="5.27098">
        <ele>772.57012666738</ele>
        <time>2021-07-13T15:39:16.248Z</time>
      </trkpt>
      <trkpt lat="43.99423" lon="5.27055">
        <ele>769.34321322165</ele>
        <time>2021-07-13T15:39:18.772Z</time>
      </trkpt>
      <trkpt lat="43.9939" lon="5.26952">
        <ele>765.63266593642</ele>
        <time>2021-07-13T15:39:21.323Z</time>
      </trkpt>
      <trkpt lat="43.99387" lon="5.26939">
        <ele>763.20993182231</ele>
        <time>2021-07-13T15:39:23.877Z</time>
      </trkpt>
      <trkpt lat="43.99387" lon="5.26925">
        <ele>761.02852826843</ele>
        <time>2021-07-13T15:39:26.435Z</time>
      </trkpt>
      <trkpt lat="43.99383" lon="5.26911">
        <ele>758.94647147796</ele>
        <time>2021-07-13T15:39:28.996Z</time>
      </trkpt>
      <trkpt lat="43.99373" lon="5.2689">
        <ele>757.00417589343</ele>
        <time>2021-07-13T15:39:31.564Z</time>
      </trkpt>
      <trkpt lat="43.9937" lon="5.26879">
        <ele>755.68287312682</ele>
        <time>2021-07-13T15:39:34.134Z</time>
      </trkpt>
      <trkpt lat="43.9937" lon="5.26858">
        <ele>754.68865326226</ele>
        <time>2021-07-13T15:39:36.710Z</time>
      </trkpt>
      <trkpt lat="43.99375" lon="5.26837">
        <ele>754.23004313641</ele>
        <time>2021-07-13T15:39:39.291Z</time>
      </trkpt>
      <trkpt lat="43.99374" lon="5.26835">
        <ele>753.73440881721</ele>
        <time>2021-07-13T15:39:41.873Z</time>
      </trkpt>
      <trkpt lat="43.99374" lon="5.26835">
        <ele>756.89575977594</ele>
        <time>2021-07-13T15:39:44.455Z</time>
      </trkpt>
      <trkpt lat="43.99373" lon="5.26834">
        <ele>756.29420540509</ele>
        <time>2021-07-13T15:39:47.037Z</time>
      </trkpt>
      <trkpt lat="43.9937" lon="5.26833">
        <ele>755.45743411606</ele>
        <time>2021-07-13T15:39:49.620Z</time>
      </trkpt>
      <trkpt lat="43.99357" lon="5.26838">
        <ele>754.13748313418</ele>
        <time>2021-07-13T15:39:52.207Z</time>
      </trkpt>
      <trkpt lat="43.99339" lon="5.26848">
        <ele>752.58165672865</ele>
        <time>2021-07-13T15:39:54.801Z</time>
      </trkpt>
      <trkpt lat="43.99328" lon="5.26857">
        <ele>751.09619427672</ele>
        <time>2021-07-13T15:39:57.399Z</time>
      </trkpt>
      <trkpt lat="43.99317" lon="5.26858">
        <ele>749.5726795446</ele>
        <time>2021-07-13T15:40:00.001Z</time>
      </trkpt>
      <trkpt lat="43.99299" lon="5.26841">
        <ele>747.83865972168</ele>
        <time>2021-07-13T15:40:02.610Z</time>
      </trkpt>
      <trkpt lat="43.99286" lon="5.26813">
        <ele>745.82286188602</ele>
        <time>2021-07-13T15:40:05.227Z</time>
      </trkpt>
      <trkpt lat="43.99258" lon="5.2677">
        <ele>743.40791696734</ele>
        <time>2021-07-13T15:40:07.858Z</time>
      </trkpt>
      <trkpt lat="43.99212" lon="5.26736">
        <ele>741.00580146139</ele>
        <time>2021-07-13T15:40:10.506Z</time>
      </trkpt>
      <trkpt lat="43.99202" lon="5.26732">
        <ele>738.76340637429</ele>
        <time>2021-07-13T15:40:13.158Z</time>
      </trkpt>
      <trkpt lat="43.99168" lon="5.26725">
        <ele>736.15587480526</ele>
        <time>2021-07-13T15:40:15.821Z</time>
      </trkpt>
      <trkpt lat="43.9916" lon="5.26721">
        <ele>733.76682689183</ele>
        <time>2021-07-13T15:40:18.487Z</time>
      </trkpt>
      <trkpt lat="43.99101" lon="5.26712">
        <ele>730.83391160436</ele>
        <time>2021-07-13T15:40:21.173Z</time>
      </trkpt>
      <trkpt lat="43.99094" lon="5.26708">
        <ele>728.44963502892</ele>
        <time>2021-07-13T15:40:23.861Z</time>
      </trkpt>
      <trkpt lat="43.99077" lon="5.26684">
        <ele>725.91384914502</ele>
        <time>2021-07-13T15:40:26.557Z</time>
      </trkpt>
      <trkpt lat="43.9907" lon="5.26679">
        <ele>723.75921700835</ele>
        <time>2021-07-13T15:40:29.256Z</time>
      </trkpt>
      <trkpt lat="43.99061" lon="5.26675">
        <ele>721.6419991711</ele>
        <time>2021-07-13T15:40:31.958Z</time>
      </trkpt>
      <trkpt lat="43.99037" lon="5.26684">
        <ele>719.21415549151</ele>
        <time>2021-07-13T15:40:34.668Z</time>
      </trkpt>
      <trkpt lat="43.99028" lon="5.26684">
        <ele>717.15882313089</ele>
        <time>2021-07-13T15:40:37.381Z</time>
      </trkpt>
      <trkpt lat="43.99015" lon="5.26686">
        <ele>715.06906593893</ele>
        <time>2021-07-13T15:40:40.099Z</time>
      </trkpt>
      <trkpt lat="43.99007" lon="5.2669">
        <ele>713.01565155707</ele>
        <time>2021-07-13T15:40:42.820Z</time>
      </trkpt>
      <trkpt lat="43.99003" lon="5.26697">
        <ele>710.98798030494</ele>
        <time>2021-07-13T15:40:45.543Z</time>
      </trkpt>
      <trkpt lat="43.98961" lon="5.26719">
        <ele>708.37788524139</ele>
        <time>2021-07-13T15:40:48.281Z</time>
      </trkpt>
      <trkpt lat="43.98944" lon="5.26721">
        <ele>706.12176283896</ele>
        <time>2021-07-13T15:40:51.024Z</time>
      </trkpt>
      <trkpt lat="43.98938" lon="5.26727">
        <ele>704.06172061778</ele>
        <time>2021-07-13T15:40:53.770Z</time>
      </trkpt>
      <trkpt lat="43.98927" lon="5.26729">
        <ele>701.97458566709</ele>
        <time>2021-07-13T15:40:56.519Z</time>
      </trkpt>
      <trkpt lat="43.98862" lon="5.26728">
        <ele>699.58099762355</ele>
        <time>2021-07-13T15:40:59.290Z</time>
      </trkpt>
      <trkpt lat="43.98834" lon="5.26718">
        <ele>697.54147652858</ele>
        <time>2021-07-13T15:41:02.071Z</time>
      </trkpt>
      <trkpt lat="43.98811" lon="5.26724">
        <ele>695.68828617765</ele>
        <time>2021-07-13T15:41:04.859Z</time>
      </trkpt>
      <trkpt lat="43.98772" lon="5.26739">
        <ele>693.93348321082</ele>
        <time>2021-07-13T15:41:07.661Z</time>
      </trkpt>
      <trkpt lat="43.98764" lon="5.26739">
        <ele>692.27723635931</ele>
        <time>2021-07-13T15:41:10.466Z</time>
      </trkpt>
      <trkpt lat="43.98757" lon="5.26733">
        <ele>690.65760210814</ele>
        <time>2021-07-13T15:41:13.273Z</time>
      </trkpt>
      <trkpt lat="43.98753" lon="5.26724">
        <ele>689.04882555524</ele>
        <time>2021-07-13T15:41:16.083Z</time>
      </trkpt>
      <trkpt lat="43.9875" lon="5.26711">
        <ele>687.48480574727</ele>
        <time>2021-07-13T15:41:18.896Z</time>
      </trkpt>
      <trkpt lat="43.98741" lon="5.26701">
        <ele>685.97252113967</ele>
        <time>2021-07-13T15:41:21.713Z</time>
      </trkpt>
      <trkpt lat="43.98717" lon="5.26694">
        <ele>684.32030699985</ele>
        <time>2021-07-13T15:41:24.538Z</time>
      </trkpt>
      <trkpt lat="43.98693" lon="5.26684">
        <ele>682.83930173061</ele>
        <time>2021-07-13T15:41:27.372Z</time>
      </trkpt>
      <trkpt lat="43.9868" lon="5.26685">
        <ele>681.4947718977</ele>
        <time>2021-07-13T15:41:30.210Z</time>
      </trkpt>
      <trkpt lat="43.98667" lon="5.26691">
        <ele>680.31660424968</ele>
        <time>2021-07-13T15:41:33.052Z</time>
      </trkpt>
      <trkpt lat="43.98651" lon="5.26691">
        <ele>679.16525430871</ele>
        <time>2021-07-13T15:41:35.900Z</time>
      </trkpt>
      <trkpt lat="43.98636" lon="5.26696">
        <ele>677.93666373935</ele>
        <time>2021-07-13T15:41:38.753Z</time>
      </trkpt>
      <trkpt lat="43.98622" lon="5.26706">
        <ele>676.5138511795</ele>
        <time>2021-07-13T15:41:41.611Z</time>
      </trkpt>
      <trkpt lat="43.98608" lon="5.267">
        <ele>675.68573129302</ele>
        <time>2021-07-13T15:41:44.474Z</time>
      </trkpt>
      <trkpt lat="43.98608" lon="5.26706">
        <ele>674.88675503642</ele>
        <time>2021-07-13T15:41:47.339Z</time>
      </trkpt>
      <trkpt lat="43.9861" lon="5.26711">
        <ele>674.30836320401</ele>
        <time>2021-07-13T15:41:50.205Z</time>
      </trkpt>
      <trkpt lat="43.98621" lon="5.26717">
        <ele>673.93248325654</ele>
        <time>2021-07-13T15:41:53.075Z</time>
      </trkpt>
      <trkpt lat="43.98621" lon="5.26717">
        <ele>678.6504106561</ele>
        <time>2021-07-13T15:41:55.945Z</time>
      </trkpt>
      <trkpt lat="43.98621" lon="5.26717">
        <ele>678.26814879824</ele>
        <time>2021-07-13T15:41:58.815Z</time>
      </trkpt>
      <trkpt lat="43.98622" lon="5.2672">
        <ele>677.75045385149</ele>
        <time>2021-07-13T15:42:01.686Z</time>
      </trkpt>
      <trkpt lat="43.98622" lon="5.26726">
        <ele>677.05740941921</ele>
        <time>2021-07-13T15:42:04.558Z</time>
      </trkpt>
      <trkpt lat="43.98621" lon="5.26731">
        <ele>676.15133776782</ele>
        <time>2021-07-13T15:42:07.431Z</time>
      </trkpt>
      <trkpt lat="43.98601" lon="5.2674">
        <ele>674.81434429748</ele>
        <time>2021-07-13T15:42:10.311Z</time>
      </trkpt>
      <trkpt lat="43.9856" lon="5.26726">
        <ele>672.81879441615</ele>
        <time>2021-07-13T15:42:13.205Z</time>
      </trkpt>
      <trkpt lat="43.98546" lon="5.26734">
        <ele>670.80828218119</ele>
        <time>2021-07-13T15:42:16.104Z</time>
      </trkpt>
      <trkpt lat="43.98527" lon="5.26752">
        <ele>668.6850946913</ele>
        <time>2021-07-13T15:42:19.011Z</time>
      </trkpt>
      <trkpt lat="43.98479" lon="5.26767">
        <ele>665.90752076108</ele>
        <time>2021-07-13T15:42:21.934Z</time>
      </trkpt>
      <trkpt lat="43.98464" lon="5.26777">
        <ele>663.22486081416</ele>
        <time>2021-07-13T15:42:24.863Z</time>
      </trkpt>
      <trkpt lat="43.98443" lon="5.2682">
        <ele>659.96812943873</ele>
        <time>2021-07-13T15:42:27.804Z</time>
      </trkpt>
      <trkpt lat="43.98426" lon="5.26835">
        <ele>656.77149216131</ele>
        <time>2021-07-13T15:42:30.752Z</time>
      </trkpt>
      <trkpt lat="43.98412" lon="5.26865">
        <ele>653.35705160907</ele>
        <time>2021-07-13T15:42:33.709Z</time>
      </trkpt>
      <trkpt lat="43.98395" lon="5.26895">
        <ele>649.82727478133</ele>
        <time>2021-07-13T15:42:36.675Z</time>
      </trkpt>
      <trkpt lat="43.98383" lon="5.26908">
        <ele>646.48027491949</ele>
        <time>2021-07-13T15:42:39.646Z</time>
      </trkpt>
      <trkpt lat="43.98366" lon="5.26917">
        <ele>643.02643847826</ele>
        <time>2021-07-13T15:42:42.623Z</time>
      </trkpt>
      <trkpt lat="43.98345" lon="5.26925">
        <ele>639.5980431151</ele>
        <time>2021-07-13T15:42:45.607Z</time>
      </trkpt>
      <trkpt lat="43.98307" lon="5.26911">
        <ele>635.75748367523</ele>
        <time>2021-07-13T15:42:48.605Z</time>
      </trkpt>
      <trkpt lat="43.98288" lon="5.26911">
        <ele>632.34035648302</ele>
        <time>2021-07-13T15:42:51.609Z</time>
      </trkpt>
      <trkpt lat="43.98273" lon="5.26917">
        <ele>629.08747866101</ele>
        <time>2021-07-13T15:42:54.618Z</time>
      </trkpt>
      <trkpt lat="43.98257" lon="5.26938">
        <ele>625.35859451829</ele>
        <time>2021-07-13T15:42:57.634Z</time>
      </trkpt>
      <trkpt lat="43.98236" lon="5.26951">
        <ele>621.81527267797</ele>
        <time>2021-07-13T15:43:00.658Z</time>
      </trkpt>
      <trkpt lat="43.98221" lon="5.26964">
        <ele>618.07294828493</ele>
        <time>2021-07-13T15:43:03.688Z</time>
      </trkpt>
      <trkpt lat="43.98194" lon="5.26973">
        <ele>614.35867164486</ele>
        <time>2021-07-13T15:43:06.727Z</time>
      </trkpt>
      <trkpt lat="43.9817" lon="5.26971">
        <ele>610.77049552994</ele>
        <time>2021-07-13T15:43:09.774Z</time>
      </trkpt>
      <trkpt lat="43.98088" lon="5.26971">
        <ele>606.7048670675</ele>
        <time>2021-07-13T15:43:12.849Z</time>
      </trkpt>
      <trkpt lat="43.98015" lon="5.26992">
        <ele>602.6065430252</ele>
        <time>2021-07-13T15:43:15.948Z</time>
      </trkpt>
      <trkpt lat="43.97986" lon="5.27006">
        <ele>599.08929974515</ele>
        <time>2021-07-13T15:43:19.058Z</time>
      </trkpt>
      <trkpt lat="43.9796" lon="5.27024">
        <ele>596.05694941723</ele>
        <time>2021-07-13T15:43:22.177Z</time>
      </trkpt>
      <trkpt lat="43.97934" lon="5.27049">
        <ele>592.70977402483</ele>
        <time>2021-07-13T15:43:25.307Z</time>
      </trkpt>
      <trkpt lat="43.97913" lon="5.27066">
        <ele>589.85848855515</ele>
        <time>2021-07-13T15:43:28.445Z</time>
      </trkpt>
      <trkpt lat="43.97895" lon="5.27071">
        <ele>587.10009250848</ele>
        <time>2021-07-13T15:43:31.589Z</time>
      </trkpt>
      <trkpt lat="43.9786" lon="5.27078">
        <ele>584.23883482241</ele>
        <time>2021-07-13T15:43:34.745Z</time>
      </trkpt>
      <trkpt lat="43.97835" lon="5.27086">
        <ele>581.58108947173</ele>
        <time>2021-07-13T15:43:37.909Z</time>
      </trkpt>
      <trkpt lat="43.97806" lon="5.27078">
        <ele>578.73457814956</ele>
        <time>2021-07-13T15:43:41.083Z</time>
      </trkpt>
      <trkpt lat="43.97779" lon="5.27063">
        <ele>575.96198753532</ele>
        <time>2021-07-13T15:43:44.267Z</time>
      </trkpt>
      <trkpt lat="43.97732" lon="5.27009">
        <ele>573.16143908481</ele>
        <time>2021-07-13T15:43:47.471Z</time>
      </trkpt>
      <trkpt lat="43.97644" lon="5.26938">
        <ele>570.22180593731</ele>
        <time>2021-07-13T15:43:50.709Z</time>
      </trkpt>
      <trkpt lat="43.97632" lon="5.2692">
        <ele>567.53231671691</ele>
        <time>2021-07-13T15:43:53.953Z</time>
      </trkpt>
      <trkpt lat="43.97591" lon="5.26876">
        <ele>564.71906695613</ele>
        <time>2021-07-13T15:43:57.214Z</time>
      </trkpt>
      <trkpt lat="43.97566" lon="5.26855">
        <ele>561.96193951277</ele>
        <time>2021-07-13T15:44:00.485Z</time>
      </trkpt>
      <trkpt lat="43.9752" lon="5.26822">
        <ele>559.53260783478</ele>
        <time>2021-07-13T15:44:03.773Z</time>
      </trkpt>
      <trkpt lat="43.97501" lon="5.26801">
        <ele>557.23558309546</ele>
        <time>2021-07-13T15:44:07.070Z</time>
      </trkpt>
      <trkpt lat="43.97491" lon="5.26775">
        <ele>554.64248657384</ele>
        <time>2021-07-13T15:44:10.374Z</time>
      </trkpt>
      <trkpt lat="43.97485" lon="5.26747">
        <ele>552.00840296793</ele>
        <time>2021-07-13T15:44:13.685Z</time>
      </trkpt>
      <trkpt lat="43.97481" lon="5.26717">
        <ele>549.13405695753</ele>
        <time>2021-07-13T15:44:17.003Z</time>
      </trkpt>
      <trkpt lat="43.97474" lon="5.26679">
        <ele>546.40797254992</ele>
        <time>2021-07-13T15:44:20.331Z</time>
      </trkpt>
      <trkpt lat="43.97467" lon="5.26657">
        <ele>544.01138058741</ele>
        <time>2021-07-13T15:44:23.664Z</time>
      </trkpt>
      <trkpt lat="43.97454" lon="5.26638">
        <ele>541.60805297511</ele>
        <time>2021-07-13T15:44:27.004Z</time>
      </trkpt>
      <trkpt lat="43.97419" lon="5.26606">
        <ele>539.15459835619</ele>
        <time>2021-07-13T15:44:30.357Z</time>
      </trkpt>
      <trkpt lat="43.97401" lon="5.26584">
        <ele>536.90416887626</ele>
        <time>2021-07-13T15:44:33.718Z</time>
      </trkpt>
      <trkpt lat="43.9737" lon="5.26528">
        <ele>534.27869278131</ele>
        <time>2021-07-13T15:44:37.096Z</time>
      </trkpt>
      <trkpt lat="43.97355" lon="5.26513">
        <ele>532.13542055691</ele>
        <time>2021-07-13T15:44:40.481Z</time>
      </trkpt>
      <trkpt lat="43.97331" lon="5.26509">
        <ele>530.06992904807</ele>
        <time>2021-07-13T15:44:43.873Z</time>
      </trkpt>
      <trkpt lat="43.9731" lon="5.26518">
        <ele>528.01728214139</ele>
        <time>2021-07-13T15:44:47.273Z</time>
      </trkpt>
      <trkpt lat="43.97264" lon="5.26515">
        <ele>525.96633764916</ele>
        <time>2021-07-13T15:44:50.688Z</time>
      </trkpt>
      <trkpt lat="43.9725" lon="5.26505">
        <ele>523.86027724241</ele>
        <time>2021-07-13T15:44:54.109Z</time>
      </trkpt>
      <trkpt lat="43.97243" lon="5.26488">
        <ele>521.64244175355</ele>
        <time>2021-07-13T15:44:57.534Z</time>
      </trkpt>
      <trkpt lat="43.9723" lon="5.26462">
        <ele>519.40948420449</ele>
        <time>2021-07-13T15:45:00.967Z</time>
      </trkpt>
      <trkpt lat="43.97215" lon="5.26438">
        <ele>517.17484029782</ele>
        <time>2021-07-13T15:45:04.408Z</time>
      </trkpt>
      <trkpt lat="43.97197" lon="5.26419">
        <ele>514.89291599434</ele>
        <time>2021-07-13T15:45:07.856Z</time>
      </trkpt>
      <trkpt lat="43.97143" lon="5.26404">
        <ele>512.34944782232</ele>
        <time>2021-07-13T15:45:11.323Z</time>
      </trkpt>
      <trkpt lat="43.97124" lon="5.26393">
        <ele>510.14507633999</ele>
        <time>2021-07-13T15:45:14.796Z</time>
      </trkpt>
      <trkpt lat="43.97109" lon="5.26374">
        <ele>507.9018337379</ele>
        <time>2021-07-13T15:45:18.276Z</time>
      </trkpt>
      <trkpt lat="43.97095" lon="5.26365">
        <ele>505.74533364545</ele>
        <time>2021-07-13T15:45:21.761Z</time>
      </trkpt>
      <trkpt lat="43.97057" lon="5.26385">
        <ele>503.40687245513</ele>
        <time>2021-07-13T15:45:25.260Z</time>
      </trkpt>
      <trkpt lat="43.97047" lon="5.26406">
        <ele>501.04741872971</ele>
        <time>2021-07-13T15:45:28.765Z</time>
      </trkpt>
      <trkpt lat="43.9703" lon="5.26425">
        <ele>498.33744417866</ele>
        <time>2021-07-13T15:45:32.277Z</time>
      </trkpt>
      <trkpt lat="43.96981" lon="5.26447">
        <ele>494.77336036464</ele>
        <time>2021-07-13T15:45:35.806Z</time>
      </trkpt>
      <trkpt lat="43.96947" lon="5.26455">
        <ele>492.05436667499</ele>
        <time>2021-07-13T15:45:39.347Z</time>
      </trkpt>
      <trkpt lat="43.96923" lon="5.26449">
        <ele>489.53914826642</ele>
        <time>2021-07-13T15:45:42.896Z</time>
      </trkpt>
      <trkpt lat="43.96881" lon="5.26402">
        <ele>486.58474384756</ele>
        <time>2021-07-13T15:45:46.463Z</time>
      </trkpt>
      <trkpt lat="43.96856" lon="5.2638">
        <ele>484.30637481231</ele>
        <time>2021-07-13T15:45:50.040Z</time>
      </trkpt>
      <trkpt lat="43.96828" lon="5.26367">
        <ele>482.67854184238</ele>
        <time>2021-07-13T15:45:53.627Z</time>
      </trkpt>
      <trkpt lat="43.96818" lon="5.26375">
        <ele>481.59785990207</ele>
        <time>2021-07-13T15:45:57.218Z</time>
      </trkpt>
      <trkpt lat="43.96805" lon="5.26372">
        <ele>480.8061819207</ele>
        <time>2021-07-13T15:46:00.813Z</time>
      </trkpt>
      <trkpt lat="43.96806" lon="5.26363">
        <ele>479.68103459891</ele>
        <time>2021-07-13T15:46:04.410Z</time>
      </trkpt>
      <trkpt lat="43.96804" lon="5.26357">
        <ele>478.94759449719</ele>
        <time>2021-07-13T15:46:08.009Z</time>
      </trkpt>
      <trkpt lat="43.96804" lon="5.26357">
        <ele>482.15481867749</ele>
        <time>2021-07-13T15:46:11.608Z</time>
      </trkpt>
      <trkpt lat="43.96806" lon="5.26363">
        <ele>482.15294461673</ele>
        <time>2021-07-13T15:46:15.209Z</time>
      </trkpt>
      <trkpt lat="43.96805" lon="5.26372">
        <ele>482.32369457751</ele>
        <time>2021-07-13T15:46:18.812Z</time>
      </trkpt>
      <trkpt lat="43.96796" lon="5.26367">
        <ele>482.56790389373</ele>
        <time>2021-07-13T15:46:22.418Z</time>
      </trkpt>
      <trkpt lat="43.9679" lon="5.26362">
        <ele>482.50618692364</ele>
        <time>2021-07-13T15:46:26.026Z</time>
      </trkpt>
      <trkpt lat="43.96785" lon="5.26355">
        <ele>481.91793059489</ele>
        <time>2021-07-13T15:46:29.636Z</time>
      </trkpt>
      <trkpt lat="43.96783" lon="5.26344">
        <ele>480.98418647452</ele>
        <time>2021-07-13T15:46:33.249Z</time>
      </trkpt>
      <trkpt lat="43.96775" lon="5.26334">
        <ele>479.96657094982</ele>
        <time>2021-07-13T15:46:36.866Z</time>
      </trkpt>
      <trkpt lat="43.96744" lon="5.26308">
        <ele>478.71056999196</ele>
        <time>2021-07-13T15:46:40.495Z</time>
      </trkpt>
      <trkpt lat="43.96729" lon="5.26309">
        <ele>477.88477854756</ele>
        <time>2021-07-13T15:46:44.129Z</time>
      </trkpt>
      <trkpt lat="43.96719" lon="5.26307">
        <ele>476.9033247794</ele>
        <time>2021-07-13T15:46:47.766Z</time>
      </trkpt>
      <trkpt lat="43.96707" lon="5.26301">
        <ele>475.81196172324</ele>
        <time>2021-07-13T15:46:51.407Z</time>
      </trkpt>
      <trkpt lat="43.96681" lon="5.26296">
        <ele>474.53715399733</ele>
        <time>2021-07-13T15:46:55.057Z</time>
      </trkpt>
      <trkpt lat="43.96662" lon="5.26302">
        <ele>473.57411528074</ele>
        <time>2021-07-13T15:46:58.714Z</time>
      </trkpt>
      <trkpt lat="43.96635" lon="5.26293">
        <ele>472.35986138102</ele>
        <time>2021-07-13T15:47:02.380Z</time>
      </trkpt>
      <trkpt lat="43.96621" lon="5.26286">
        <ele>471.31531900989</ele>
        <time>2021-07-13T15:47:06.051Z</time>
      </trkpt>
      <trkpt lat="43.96603" lon="5.26287">
        <ele>470.25092554516</ele>
        <time>2021-07-13T15:47:09.728Z</time>
      </trkpt>
      <trkpt lat="43.96587" lon="5.26285">
        <ele>469.23184176248</ele>
        <time>2021-07-13T15:47:13.410Z</time>
      </trkpt>
      <trkpt lat="43.96571" lon="5.26278">
        <ele>468.34107151038</ele>
        <time>2021-07-13T15:47:17.098Z</time>
      </trkpt>
      <trkpt lat="43.96559" lon="5.26278">
        <ele>467.51005530861</ele>
        <time>2021-07-13T15:47:20.790Z</time>
      </trkpt>
      <trkpt lat="43.96545" lon="5.26283">
        <ele>466.76778845873</ele>
        <time>2021-07-13T15:47:24.487Z</time>
      </trkpt>
      <trkpt lat="43.96533" lon="5.26285">
        <ele>466.05399716586</ele>
        <time>2021-07-13T15:47:28.188Z</time>
      </trkpt>
      <trkpt lat="43.96517" lon="5.26281">
        <ele>465.26146713269</ele>
        <time>2021-07-13T15:47:31.894Z</time>
      </trkpt>
      <trkpt lat="43.96487" lon="5.26284">
        <ele>464.77897955575</ele>
        <time>2021-07-13T15:47:35.610Z</time>
      </trkpt>
      <trkpt lat="43.96467" lon="5.26284">
        <ele>464.23216693946</ele>
        <time>2021-07-13T15:47:39.333Z</time>
      </trkpt>
      <trkpt lat="43.9645" lon="5.26288">
        <ele>463.64228518469</ele>
        <time>2021-07-13T15:47:43.062Z</time>
      </trkpt>
      <trkpt lat="43.96441" lon="5.26293">
        <ele>462.88655758646</ele>
        <time>2021-07-13T15:47:46.794Z</time>
      </trkpt>
      <trkpt lat="43.96428" lon="5.26305">
        <ele>461.94563556395</ele>
        <time>2021-07-13T15:47:50.531Z</time>
      </trkpt>
      <trkpt lat="43.96408" lon="5.26309">
        <ele>460.69588881083</ele>
        <time>2021-07-13T15:47:54.275Z</time>
      </trkpt>
      <trkpt lat="43.964" lon="5.26318">
        <ele>459.54684561937</ele>
        <time>2021-07-13T15:47:58.022Z</time>
      </trkpt>
      <trkpt lat="43.96372" lon="5.26331">
        <ele>457.77713638202</ele>
        <time>2021-07-13T15:48:01.779Z</time>
      </trkpt>
      <trkpt lat="43.96372" lon="5.26331">
        <ele>454.30525136366</ele>
        <time>2021-07-13T15:48:05.536Z</time>
      </trkpt>
      <trkpt lat="43.96352" lon="5.26341">
        <ele>453.45984611994</ele>
        <time>2021-07-13T15:48:09.300Z</time>
      </trkpt>
      <trkpt lat="43.96345" lon="5.26348">
        <ele>452.75948713974</ele>
        <time>2021-07-13T15:48:13.067Z</time>
      </trkpt>
      <trkpt lat="43.96338" lon="5.26351">
        <ele>452.18639502883</ele>
        <time>2021-07-13T15:48:16.837Z</time>
      </trkpt>
      <trkpt lat="43.96335" lon="5.26359">
        <ele>451.83427875163</ele>
        <time>2021-07-13T15:48:20.609Z</time>
      </trkpt>
      <trkpt lat="43.96324" lon="5.26366">
        <ele>451.58436559641</ele>
        <time>2021-07-13T15:48:24.385Z</time>
      </trkpt>
      <trkpt lat="43.96302" lon="5.26374">
        <ele>451.13586729111</ele>
        <time>2021-07-13T15:48:28.168Z</time>
      </trkpt>
      <trkpt lat="43.96302" lon="5.26374">
        <ele>450.80044465717</ele>
        <time>2021-07-13T15:48:31.951Z</time>
      </trkpt>
      <trkpt lat="43.9628" lon="5.26388">
        <ele>450.40755206852</ele>
        <time>2021-07-13T15:48:35.742Z</time>
      </trkpt>
      <trkpt lat="43.96273" lon="5.26402">
        <ele>450.17766351325</ele>
        <time>2021-07-13T15:48:39.537Z</time>
      </trkpt>
      <trkpt lat="43.96246" lon="5.26432">
        <ele>449.87144921723</ele>
        <time>2021-07-13T15:48:43.344Z</time>
      </trkpt>
      <trkpt lat="43.96235" lon="5.26451">
        <ele>449.60249495376</ele>
        <time>2021-07-13T15:48:47.157Z</time>
      </trkpt>
      <trkpt lat="43.9622" lon="5.26485">
        <ele>449.40452536958</ele>
        <time>2021-07-13T15:48:50.980Z</time>
      </trkpt>
      <trkpt lat="43.96222" lon="5.2649">
        <ele>449.69058857456</ele>
        <time>2021-07-13T15:48:54.804Z</time>
      </trkpt>
      <trkpt lat="43.96222" lon="5.26498">
        <ele>450.07788298729</ele>
        <time>2021-07-13T15:48:58.630Z</time>
      </trkpt>
      <trkpt lat="43.96219" lon="5.26505">
        <ele>450.56407202162</ele>
        <time>2021-07-13T15:49:02.458Z</time>
      </trkpt>
      <trkpt lat="43.96215" lon="5.26508">
        <ele>451.30562067315</ele>
        <time>2021-07-13T15:49:06.287Z</time>
      </trkpt>
      <trkpt lat="43.96212" lon="5.26515">
        <ele>452.34189025748</ele>
        <time>2021-07-13T15:49:10.118Z</time>
      </trkpt>
      <trkpt lat="43.96215" lon="5.26521">
        <ele>453.62714672818</ele>
        <time>2021-07-13T15:49:13.951Z</time>
      </trkpt>
      <trkpt lat="43.96284" lon="5.26552">
        <ele>455.91749961647</ele>
        <time>2021-07-13T15:49:17.808Z</time>
      </trkpt>
      <trkpt lat="43.96293" lon="5.26565">
        <ele>457.56571775067</ele>
        <time>2021-07-13T15:49:21.669Z</time>
      </trkpt>
      <trkpt lat="43.96295" lon="5.26577">
        <ele>459.2655390956</ele>
        <time>2021-07-13T15:49:25.533Z</time>
      </trkpt>
      <trkpt lat="43.96294" lon="5.26582">
        <ele>461.05850733708</ele>
        <time>2021-07-13T15:49:29.399Z</time>
      </trkpt>
      <trkpt lat="43.96291" lon="5.26587">
        <ele>463.03814260956</ele>
        <time>2021-07-13T15:49:33.266Z</time>
      </trkpt>
      <trkpt lat="43.96282" lon="5.26594">
        <ele>465.14130176937</ele>
        <time>2021-07-13T15:49:37.137Z</time>
      </trkpt>
      <trkpt lat="43.96246" lon="5.26615">
        <ele>467.91074952305</ele>
        <time>2021-07-13T15:49:41.021Z</time>
      </trkpt>
      <trkpt lat="43.96229" lon="5.26616">
        <ele>470.14470262947</ele>
        <time>2021-07-13T15:49:44.911Z</time>
      </trkpt>
      <trkpt lat="43.96174" lon="5.26605">
        <ele>471.67670849435</ele>
        <time>2021-07-13T15:49:48.819Z</time>
      </trkpt>
      <trkpt lat="43.96167" lon="5.26611">
        <ele>474.08767562694</ele>
        <time>2021-07-13T15:49:52.730Z</time>
      </trkpt>
      <trkpt lat="43.96161" lon="5.26644">
        <ele>477.40580291871</ele>
        <time>2021-07-13T15:49:56.649Z</time>
      </trkpt>
      <trkpt lat="43.96161" lon="5.26674">
        <ele>480.55307948435</ele>
        <time>2021-07-13T15:50:00.575Z</time>
      </trkpt>
      <trkpt lat="43.96167" lon="5.2669">
        <ele>483.28106134672</ele>
        <time>2021-07-13T15:50:04.506Z</time>
      </trkpt>
      <trkpt lat="43.96178" lon="5.26703">
        <ele>485.96478202423</ele>
        <time>2021-07-13T15:50:08.441Z</time>
      </trkpt>
      <trkpt lat="43.96183" lon="5.26712">
        <ele>488.60855558346</ele>
        <time>2021-07-13T15:50:12.379Z</time>
      </trkpt>
      <trkpt lat="43.96192" lon="5.26732">
        <ele>491.51777055054</ele>
        <time>2021-07-13T15:50:16.323Z</time>
      </trkpt>
      <trkpt lat="43.96223" lon="5.26778">
        <ele>494.77690483456</ele>
        <time>2021-07-13T15:50:20.282Z</time>
      </trkpt>
      <trkpt lat="43.96232" lon="5.26808">
        <ele>497.5119779899</ele>
        <time>2021-07-13T15:50:24.249Z</time>
      </trkpt>
      <trkpt lat="43.96273" lon="5.2688">
        <ele>500.3364354569</ele>
        <time>2021-07-13T15:50:28.238Z</time>
      </trkpt>
      <trkpt lat="43.96279" lon="5.26905">
        <ele>502.21184081284</ele>
        <time>2021-07-13T15:50:32.233Z</time>
      </trkpt>
      <trkpt lat="43.96279" lon="5.26905">
        <ele>507.40452393505</ele>
        <time>2021-07-13T15:50:36.228Z</time>
      </trkpt>
      <trkpt lat="43.96285" lon="5.26931">
        <ele>508.38057444724</ele>
        <time>2021-07-13T15:50:40.230Z</time>
      </trkpt>
      <trkpt lat="43.96302" lon="5.26967">
        <ele>509.55718739304</ele>
        <time>2021-07-13T15:50:44.242Z</time>
      </trkpt>
      <trkpt lat="43.96304" lon="5.27013">
        <ele>510.55820134731</ele>
        <time>2021-07-13T15:50:48.265Z</time>
      </trkpt>
      <trkpt lat="43.96307" lon="5.27021">
        <ele>511.23291544278</ele>
        <time>2021-07-13T15:50:52.290Z</time>
      </trkpt>
      <trkpt lat="43.96307" lon="5.27026">
        <ele>511.74899896498</ele>
        <time>2021-07-13T15:50:56.316Z</time>
      </trkpt>
      <trkpt lat="43.96307" lon="5.27037">
        <ele>512.18456497515</ele>
        <time>2021-07-13T15:51:00.345Z</time>
      </trkpt>
      <trkpt lat="43.96309" lon="5.27052">
        <ele>512.56287315465</ele>
        <time>2021-07-13T15:51:04.378Z</time>
      </trkpt>
      <trkpt lat="43.96326" lon="5.27125">
        <ele>512.90388943617</ele>
        <time>2021-07-13T15:51:08.429Z</time>
      </trkpt>
      <trkpt lat="43.96335" lon="5.27145">
        <ele>513.14489281607</ele>
        <time>2021-07-13T15:51:12.486Z</time>
      </trkpt>
      <trkpt lat="43.96356" lon="5.27187">
        <ele>513.42162731165</ele>
        <time>2021-07-13T15:51:16.555Z</time>
      </trkpt>
      <trkpt lat="43.96359" lon="5.27197">
        <ele>513.60229817955</ele>
        <time>2021-07-13T15:51:20.627Z</time>
      </trkpt>
      <trkpt lat="43.96362" lon="5.27213">
        <ele>513.7571291504</ele>
        <time>2021-07-13T15:51:24.703Z</time>
      </trkpt>
      <trkpt lat="43.96359" lon="5.27221">
        <ele>513.8227398426</ele>
        <time>2021-07-13T15:51:28.781Z</time>
      </trkpt>
      <trkpt lat="43.96352" lon="5.27236">
        <ele>513.88730817651</ele>
        <time>2021-07-13T15:51:32.863Z</time>
      </trkpt>
      <trkpt lat="43.96352" lon="5.27236">
        <ele>514.09470193383</ele>
        <time>2021-07-13T15:51:36.945Z</time>
      </trkpt>
      <trkpt lat="43.96344" lon="5.27244">
        <ele>514.34454724712</ele>
        <time>2021-07-13T15:51:41.030Z</time>
      </trkpt>
      <trkpt lat="43.96214" lon="5.27313">
        <ele>514.86502447346</ele>
        <time>2021-07-13T15:51:45.162Z</time>
      </trkpt>
      <trkpt lat="43.96183" lon="5.27332">
        <ele>515.58245842953</ele>
        <time>2021-07-13T15:51:49.305Z</time>
      </trkpt>
      <trkpt lat="43.96177" lon="5.27338">
        <ele>516.21661243861</ele>
        <time>2021-07-13T15:51:53.451Z</time>
      </trkpt>
      <trkpt lat="43.96172" lon="5.2735">
        <ele>516.89009189887</ele>
        <time>2021-07-13T15:51:57.600Z</time>
      </trkpt>
      <trkpt lat="43.96163" lon="5.27376">
        <ele>517.59624257511</ele>
        <time>2021-07-13T15:52:01.756Z</time>
      </trkpt>
      <trkpt lat="43.96163" lon="5.27376">
        <ele>518.12355200822</ele>
        <time>2021-07-13T15:52:05.912Z</time>
      </trkpt>
      <trkpt lat="43.96156" lon="5.27393">
        <ele>518.73292897932</ele>
        <time>2021-07-13T15:52:10.073Z</time>
      </trkpt>
      <trkpt lat="43.96111" lon="5.27481">
        <ele>519.30915247766</ele>
        <time>2021-07-13T15:52:14.260Z</time>
      </trkpt>
      <trkpt lat="43.96059" lon="5.27591">
        <ele>518.28421194798</ele>
        <time>2021-07-13T15:52:18.478Z</time>
      </trkpt>
      <trkpt lat="43.96049" lon="5.27608">
        <ele>518.04434843687</ele>
        <time>2021-07-13T15:52:22.701Z</time>
      </trkpt>
      <trkpt lat="43.96049" lon="5.27608">
        <ele>516.92116119387</ele>
        <time>2021-07-13T15:52:26.924Z</time>
      </trkpt>
      <trkpt lat="43.96047" lon="5.27612">
        <ele>515.85588449062</ele>
        <time>2021-07-13T15:52:31.149Z</time>
      </trkpt>
      <trkpt lat="43.96034" lon="5.27625">
        <ele>514.55105301659</ele>
        <time>2021-07-13T15:52:35.379Z</time>
      </trkpt>
      <trkpt lat="43.96006" lon="5.2764">
        <ele>512.80098374396</ele>
        <time>2021-07-13T15:52:39.619Z</time>
      </trkpt>
      <trkpt lat="43.95987" lon="5.27656">
        <ele>510.92382443651</ele>
        <time>2021-07-13T15:52:43.866Z</time>
      </trkpt>
      <trkpt lat="43.95971" lon="5.27674">
        <ele>508.92920312684</ele>
        <time>2021-07-13T15:52:48.120Z</time>
      </trkpt>
      <trkpt lat="43.95956" lon="5.27696">
        <ele>506.93359566114</ele>
        <time>2021-07-13T15:52:52.382Z</time>
      </trkpt>
      <trkpt lat="43.95917" lon="5.27761">
        <ele>504.73941109114</ele>
        <time>2021-07-13T15:52:56.664Z</time>
      </trkpt>
      <trkpt lat="43.95902" lon="5.27788">
        <ele>503.13044141846</ele>
        <time>2021-07-13T15:53:00.954Z</time>
      </trkpt>
      <trkpt lat="43.95896" lon="5.27803">
        <ele>501.78038499956</ele>
        <time>2021-07-13T15:53:05.248Z</time>
      </trkpt>
      <trkpt lat="43.95879" lon="5.2785">
        <ele>500.54386216341</ele>
        <time>2021-07-13T15:53:09.555Z</time>
      </trkpt>
      <trkpt lat="43.95873" lon="5.27873">
        <ele>499.66844250454</ele>
        <time>2021-07-13T15:53:13.868Z</time>
      </trkpt>
      <trkpt lat="43.95871" lon="5.27891">
        <ele>499.03136289412</ele>
        <time>2021-07-13T15:53:18.185Z</time>
      </trkpt>
      <trkpt lat="43.95868" lon="5.27974">
        <ele>498.57466241647</ele>
        <time>2021-07-13T15:53:22.522Z</time>
      </trkpt>
      <trkpt lat="43.95864" lon="5.28026">
        <ele>498.29562665716</ele>
        <time>2021-07-13T15:53:26.872Z</time>
      </trkpt>
      <trkpt lat="43.95864" lon="5.28026">
        <ele>498.339963006</ele>
        <time>2021-07-13T15:53:31.222Z</time>
      </trkpt>
      <trkpt lat="43.95862" lon="5.28037">
        <ele>498.58070389337</ele>
        <time>2021-07-13T15:53:35.575Z</time>
      </trkpt>
      <trkpt lat="43.95868" lon="5.28066">
        <ele>499.04886381723</ele>
        <time>2021-07-13T15:53:39.935Z</time>
      </trkpt>
      <trkpt lat="43.95882" lon="5.28126">
        <ele>499.91887374787</ele>
        <time>2021-07-13T15:53:44.310Z</time>
      </trkpt>
      <trkpt lat="43.95893" lon="5.28151">
        <ele>501.06915859014</ele>
        <time>2021-07-13T15:53:48.692Z</time>
      </trkpt>
      <trkpt lat="43.95915" lon="5.28181">
        <ele>502.68434144564</ele>
        <time>2021-07-13T15:53:53.084Z</time>
      </trkpt>
      <trkpt lat="43.95969" lon="5.2828">
        <ele>505.12360159909</ele>
        <time>2021-07-13T15:53:57.506Z</time>
      </trkpt>
      <trkpt lat="43.95981" lon="5.28288">
        <ele>507.00727948698</ele>
        <time>2021-07-13T15:54:01.933Z</time>
      </trkpt>
      <trkpt lat="43.96005" lon="5.28293">
        <ele>509.05870439653</ele>
        <time>2021-07-13T15:54:06.368Z</time>
      </trkpt>
      <trkpt lat="43.96043" lon="5.28305">
        <ele>511.21356340211</ele>
        <time>2021-07-13T15:54:10.816Z</time>
      </trkpt>
      <trkpt lat="43.96065" lon="5.28319">
        <ele>513.22224969699</ele>
        <time>2021-07-13T15:54:15.272Z</time>
      </trkpt>
      <trkpt lat="43.9608" lon="5.28321">
        <ele>515.23440706616</ele>
        <time>2021-07-13T15:54:19.733Z</time>
      </trkpt>
      <trkpt lat="43.96094" lon="5.2832">
        <ele>517.23796522994</ele>
        <time>2021-07-13T15:54:24.199Z</time>
      </trkpt>
      <trkpt lat="43.96153" lon="5.28325">
        <ele>519.64532565769</ele>
        <time>2021-07-13T15:54:28.684Z</time>
      </trkpt>
      <trkpt lat="43.96166" lon="5.28329">
        <ele>521.27596202185</ele>
        <time>2021-07-13T15:54:33.174Z</time>
      </trkpt>
      <trkpt lat="43.96173" lon="5.2834">
        <ele>522.60912626942</ele>
        <time>2021-07-13T15:54:37.667Z</time>
      </trkpt>
      <trkpt lat="43.96181" lon="5.28368">
        <ele>523.88503303835</ele>
        <time>2021-07-13T15:54:42.168Z</time>
      </trkpt>
      <trkpt lat="43.96195" lon="5.28431">
        <ele>525.34863054967</ele>
        <time>2021-07-13T15:54:46.684Z</time>
      </trkpt>
      <trkpt lat="43.96195" lon="5.28431">
        <ele>525.98191388184</ele>
        <time>2021-07-13T15:54:51.200Z</time>
      </trkpt>
      <trkpt lat="43.96192" lon="5.2845">
        <ele>524.81527637733</ele>
        <time>2021-07-13T15:54:55.721Z</time>
      </trkpt>
      <trkpt lat="43.96187" lon="5.28461">
        <ele>523.34000867868</ele>
        <time>2021-07-13T15:55:00.245Z</time>
      </trkpt>
      <trkpt lat="43.96178" lon="5.28471">
        <ele>521.60033956985</ele>
        <time>2021-07-13T15:55:04.773Z</time>
      </trkpt>
      <trkpt lat="43.96114" lon="5.28571">
        <ele>518.69714236538</ele>
        <time>2021-07-13T15:55:09.333Z</time>
      </trkpt>
      <trkpt lat="43.96106" lon="5.28579">
        <ele>516.08926404113</ele>
        <time>2021-07-13T15:55:13.896Z</time>
      </trkpt>
      <trkpt lat="43.96097" lon="5.28581">
        <ele>513.53319134621</ele>
        <time>2021-07-13T15:55:18.463Z</time>
      </trkpt>
      <trkpt lat="43.96087" lon="5.28579">
        <ele>511.05426496411</ele>
        <time>2021-07-13T15:55:23.033Z</time>
      </trkpt>
      <trkpt lat="43.96075" lon="5.28581">
        <ele>508.53338013198</ele>
        <time>2021-07-13T15:55:27.607Z</time>
      </trkpt>
      <trkpt lat="43.96023" lon="5.2861">
        <ele>505.46437442234</ele>
        <time>2021-07-13T15:55:32.200Z</time>
      </trkpt>
      <trkpt lat="43.95998" lon="5.28633">
        <ele>502.71569556906</ele>
        <time>2021-07-13T15:55:36.803Z</time>
      </trkpt>
      <trkpt lat="43.95979" lon="5.28666">
        <ele>499.70128987341</ele>
        <time>2021-07-13T15:55:41.416Z</time>
      </trkpt>
      <trkpt lat="43.95974" lon="5.2867">
        <ele>497.11266526624</ele>
        <time>2021-07-13T15:55:46.031Z</time>
      </trkpt>
      <trkpt lat="43.95951" lon="5.28674">
        <ele>494.53521235454</ele>
        <time>2021-07-13T15:55:50.654Z</time>
      </trkpt>
      <trkpt lat="43.95934" lon="5.28669">
        <ele>492.16619502216</ele>
        <time>2021-07-13T15:55:55.282Z</time>
      </trkpt>
      <trkpt lat="43.95908" lon="5.28667">
        <ele>489.76112203498</ele>
        <time>2021-07-13T15:55:59.919Z</time>
      </trkpt>
      <trkpt lat="43.95893" lon="5.28675">
        <ele>487.48120744878</ele>
        <time>2021-07-13T15:56:04.561Z</time>
      </trkpt>
      <trkpt lat="43.95883" lon="5.28674">
        <ele>485.30845773775</ele>
        <time>2021-07-13T15:56:09.207Z</time>
      </trkpt>
      <trkpt lat="43.95875" lon="5.28676">
        <ele>483.19171577351</ele>
        <time>2021-07-13T15:56:13.856Z</time>
      </trkpt>
      <trkpt lat="43.95858" lon="5.2869">
        <ele>480.89840298717</ele>
        <time>2021-07-13T15:56:18.511Z</time>
      </trkpt>
      <trkpt lat="43.95853" lon="5.28698">
        <ele>478.79968981727</ele>
        <time>2021-07-13T15:56:23.168Z</time>
      </trkpt>
      <trkpt lat="43.95844" lon="5.28705">
        <ele>476.67086590357</ele>
        <time>2021-07-13T15:56:27.829Z</time>
      </trkpt>
      <trkpt lat="43.95831" lon="5.2871">
        <ele>474.52959881751</ele>
        <time>2021-07-13T15:56:32.495Z</time>
      </trkpt>
      <trkpt lat="43.95822" lon="5.28717">
        <ele>472.52017366587</ele>
        <time>2021-07-13T15:56:37.164Z</time>
      </trkpt>
      <trkpt lat="43.95805" lon="5.28743">
        <ele>470.24822513447</ele>
        <time>2021-07-13T15:56:41.841Z</time>
      </trkpt>
      <trkpt lat="43.95777" lon="5.28763">
        <ele>467.94682782646</ele>
        <time>2021-07-13T15:56:46.529Z</time>
      </trkpt>
      <trkpt lat="43.95769" lon="5.28777">
        <ele>465.87382077149</ele>
        <time>2021-07-13T15:56:51.221Z</time>
      </trkpt>
      <trkpt lat="43.95737" lon="5.28825">
        <ele>463.38989058056</ele>
        <time>2021-07-13T15:56:55.929Z</time>
      </trkpt>
      <trkpt lat="43.95729" lon="5.28845">
        <ele>461.36030447285</ele>
        <time>2021-07-13T15:57:00.642Z</time>
      </trkpt>
      <trkpt lat="43.9572" lon="5.28857">
        <ele>459.53507168809</ele>
        <time>2021-07-13T15:57:05.359Z</time>
      </trkpt>
      <trkpt lat="43.95715" lon="5.28862">
        <ele>457.82634173658</ele>
        <time>2021-07-13T15:57:10.079Z</time>
      </trkpt>
      <trkpt lat="43.95703" lon="5.28883">
        <ele>456.12667328788</ele>
        <time>2021-07-13T15:57:14.805Z</time>
      </trkpt>
      <trkpt lat="43.9569" lon="5.28897">
        <ele>454.4917989867</ele>
        <time>2021-07-13T15:57:19.537Z</time>
      </trkpt>
      <trkpt lat="43.95682" lon="5.2891">
        <ele>453.01894701874</ele>
        <time>2021-07-13T15:57:24.273Z</time>
      </trkpt>
      <trkpt lat="43.95674" lon="5.28931">
        <ele>451.49161572284</ele>
        <time>2021-07-13T15:57:29.014Z</time>
      </trkpt>
      <trkpt lat="43.95666" lon="5.28946">
        <ele>450.11002422087</ele>
        <time>2021-07-13T15:57:33.760Z</time>
      </trkpt>
      <trkpt lat="43.95659" lon="5.28952">
        <ele>448.78479179005</ele>
        <time>2021-07-13T15:57:38.509Z</time>
      </trkpt>
      <trkpt lat="43.95648" lon="5.28956">
        <ele>447.45348078495</ele>
        <time>2021-07-13T15:57:43.261Z</time>
      </trkpt>
      <trkpt lat="43.95637" lon="5.28963">
        <ele>446.11172951215</ele>
        <time>2021-07-13T15:57:48.017Z</time>
      </trkpt>
      <trkpt lat="43.95629" lon="5.28975">
        <ele>444.79712577336</ele>
        <time>2021-07-13T15:57:52.777Z</time>
      </trkpt>
      <trkpt lat="43.95617" lon="5.2901">
        <ele>443.29334700884</ele>
        <time>2021-07-13T15:57:57.547Z</time>
      </trkpt>
      <trkpt lat="43.95603" lon="5.29032">
        <ele>441.76531116779</ele>
        <time>2021-07-13T15:58:02.324Z</time>
      </trkpt>
      <trkpt lat="43.95592" lon="5.29038">
        <ele>440.34079704718</ele>
        <time>2021-07-13T15:58:07.105Z</time>
      </trkpt>
      <trkpt lat="43.95581" lon="5.29036">
        <ele>438.8495071395</ele>
        <time>2021-07-13T15:58:11.890Z</time>
      </trkpt>
      <trkpt lat="43.95566" lon="5.29045">
        <ele>437.27075928085</ele>
        <time>2021-07-13T15:58:16.680Z</time>
      </trkpt>
      <trkpt lat="43.95559" lon="5.29059">
        <ele>435.72191409842</ele>
        <time>2021-07-13T15:58:21.474Z</time>
      </trkpt>
      <trkpt lat="43.95547" lon="5.29097">
        <ele>433.88192670514</ele>
        <time>2021-07-13T15:58:26.278Z</time>
      </trkpt>
      <trkpt lat="43.95544" lon="5.291">
        <ele>432.22028748328</ele>
        <time>2021-07-13T15:58:31.083Z</time>
      </trkpt>
      <trkpt lat="43.95533" lon="5.29106">
        <ele>430.38527465063</ele>
        <time>2021-07-13T15:58:35.892Z</time>
      </trkpt>
      <trkpt lat="43.95533" lon="5.29106">
        <ele>428.56994887015</ele>
        <time>2021-07-13T15:58:40.701Z</time>
      </trkpt>
      <trkpt lat="43.95512" lon="5.29111">
        <ele>426.43248347967</ele>
        <time>2021-07-13T15:58:45.517Z</time>
      </trkpt>
      <trkpt lat="43.95497" lon="5.29124">
        <ele>424.2478738289</ele>
        <time>2021-07-13T15:58:50.339Z</time>
      </trkpt>
      <trkpt lat="43.95484" lon="5.29127">
        <ele>421.96949126251</ele>
        <time>2021-07-13T15:58:55.166Z</time>
      </trkpt>
      <trkpt lat="43.95473" lon="5.2914">
        <ele>419.56487321872</ele>
        <time>2021-07-13T15:58:59.997Z</time>
      </trkpt>
      <trkpt lat="43.95452" lon="5.29198">
        <ele>416.58073235286</ele>
        <time>2021-07-13T15:59:04.844Z</time>
      </trkpt>
      <trkpt lat="43.95438" lon="5.29213">
        <ele>413.76493454513</ele>
        <time>2021-07-13T15:59:09.697Z</time>
      </trkpt>
      <trkpt lat="43.95424" lon="5.29218">
        <ele>411.01215848095</ele>
        <time>2021-07-13T15:59:14.555Z</time>
      </trkpt>
      <trkpt lat="43.95405" lon="5.29216">
        <ele>408.21508981742</ele>
        <time>2021-07-13T15:59:19.419Z</time>
      </trkpt>
      <trkpt lat="43.95376" lon="5.29203">
        <ele>405.47179605003</ele>
        <time>2021-07-13T15:59:24.293Z</time>
      </trkpt>
      <trkpt lat="43.95349" lon="5.29196">
        <ele>402.79317413405</ele>
        <time>2021-07-13T15:59:29.176Z</time>
      </trkpt>
      <trkpt lat="43.95331" lon="5.29182">
        <ele>400.11649510443</ele>
        <time>2021-07-13T15:59:34.066Z</time>
      </trkpt>
      <trkpt lat="43.95283" lon="5.29124">
        <ele>397.01676813189</ele>
        <time>2021-07-13T15:59:38.977Z</time>
      </trkpt>
      <trkpt lat="43.95266" lon="5.29097">
        <ele>394.43644264923</ele>
        <time>2021-07-13T15:59:43.897Z</time>
      </trkpt>
      <trkpt lat="43.95262" lon="5.29084">
        <ele>392.2183790097</ele>
        <time>2021-07-13T15:59:48.821Z</time>
      </trkpt>
      <trkpt lat="43.95252" lon="5.29071">
        <ele>390.00466252722</ele>
        <time>2021-07-13T15:59:53.749Z</time>
      </trkpt>
      <trkpt lat="43.95244" lon="5.29055">
        <ele>387.88807583924</ele>
        <time>2021-07-13T15:59:58.682Z</time>
      </trkpt>
      <trkpt lat="43.95241" lon="5.29043">
        <ele>385.89641118313</ele>
        <time>2021-07-13T16:00:03.618Z</time>
      </trkpt>
      <trkpt lat="43.95231" lon="5.29024">
        <ele>383.76896652111</ele>
        <time>2021-07-13T16:00:08.560Z</time>
      </trkpt>
      <trkpt lat="43.95218" lon="5.29015">
        <ele>381.75479676748</ele>
        <time>2021-07-13T16:00:13.506Z</time>
      </trkpt>
      <trkpt lat="43.95209" lon="5.29012">
        <ele>379.710585092</ele>
        <time>2021-07-13T16:00:18.455Z</time>
      </trkpt>
      <trkpt lat="43.95202" lon="5.29011">
        <ele>377.519952963</ele>
        <time>2021-07-13T16:00:23.407Z</time>
      </trkpt>
      <trkpt lat="43.9519" lon="5.29013">
        <ele>375.08420207895</ele>
        <time>2021-07-13T16:00:28.363Z</time>
      </trkpt>
      <trkpt lat="43.95179" lon="5.29013">
        <ele>372.4793651152</ele>
        <time>2021-07-13T16:00:33.322Z</time>
      </trkpt>
      <trkpt lat="43.95159" lon="5.29017">
        <ele>369.47647164088</ele>
        <time>2021-07-13T16:00:38.288Z</time>
      </trkpt>
      <trkpt lat="43.95137" lon="5.29019">
        <ele>366.38982528945</ele>
        <time>2021-07-13T16:00:43.261Z</time>
      </trkpt>
      <trkpt lat="43.95102" lon="5.29014">
        <ele>363.13527457952</ele>
        <time>2021-07-13T16:00:48.246Z</time>
      </trkpt>
      <trkpt lat="43.95085" lon="5.29017">
        <ele>360.43357971614</ele>
        <time>2021-07-13T16:00:53.237Z</time>
      </trkpt>
      <trkpt lat="43.95072" lon="5.29024">
        <ele>357.84740348128</ele>
        <time>2021-07-13T16:00:58.233Z</time>
      </trkpt>
      <trkpt lat="43.95058" lon="5.29038">
        <ele>355.40071751851</ele>
        <time>2021-07-13T16:01:03.234Z</time>
      </trkpt>
      <trkpt lat="43.95024" lon="5.29087">
        <ele>353.0039797908</ele>
        <time>2021-07-13T16:01:08.252Z</time>
      </trkpt>
      <trkpt lat="43.95008" lon="5.29102">
        <ele>351.02781519132</ele>
        <time>2021-07-13T16:01:13.276Z</time>
      </trkpt>
      <trkpt lat="43.94998" lon="5.29107">
        <ele>349.51451513194</ele>
        <time>2021-07-13T16:01:18.304Z</time>
      </trkpt>
      <trkpt lat="43.94998" lon="5.29107">
        <ele>348.07637381195</ele>
        <time>2021-07-13T16:01:23.332Z</time>
      </trkpt>
      <trkpt lat="43.94985" lon="5.29113">
        <ele>346.54183584598</ele>
        <time>2021-07-13T16:01:28.364Z</time>
      </trkpt>
      <trkpt lat="43.94985" lon="5.29113">
        <ele>344.99545233429</ele>
        <time>2021-07-13T16:01:33.396Z</time>
      </trkpt>
      <trkpt lat="43.94964" lon="5.29129">
        <ele>342.87516354337</ele>
        <time>2021-07-13T16:01:38.436Z</time>
      </trkpt>
      <trkpt lat="43.9493" lon="5.29139">
        <ele>339.87771497039</ele>
        <time>2021-07-13T16:01:43.488Z</time>
      </trkpt>
      <trkpt lat="43.94917" lon="5.2915">
        <ele>337.02884929435</ele>
        <time>2021-07-13T16:01:48.545Z</time>
      </trkpt>
      <trkpt lat="43.94913" lon="5.29166">
        <ele>334.34530979177</ele>
        <time>2021-07-13T16:01:53.606Z</time>
      </trkpt>
      <trkpt lat="43.94916" lon="5.29208">
        <ele>331.89083854374</ele>
        <time>2021-07-13T16:01:58.677Z</time>
      </trkpt>
      <trkpt lat="43.94914" lon="5.29226">
        <ele>329.4832530858</ele>
        <time>2021-07-13T16:02:03.752Z</time>
      </trkpt>
      <trkpt lat="43.94898" lon="5.29244">
        <ele>326.70206830333</ele>
        <time>2021-07-13T16:02:08.834Z</time>
      </trkpt>
      <trkpt lat="43.94868" lon="5.29261">
        <ele>323.41304393349</ele>
        <time>2021-07-13T16:02:13.927Z</time>
      </trkpt>
      <trkpt lat="43.94843" lon="5.29279">
        <ele>320.32071532949</ele>
        <time>2021-07-13T16:02:19.029Z</time>
      </trkpt>
      <trkpt lat="43.94821" lon="5.2929">
        <ele>317.28996324161</ele>
        <time>2021-07-13T16:02:24.139Z</time>
      </trkpt>
      <trkpt lat="43.94812" lon="5.2929">
        <ele>314.68502937204</ele>
        <time>2021-07-13T16:02:29.252Z</time>
      </trkpt>
      <trkpt lat="43.94804" lon="5.29285">
        <ele>312.32273453691</ele>
        <time>2021-07-13T16:02:34.368Z</time>
      </trkpt>
      <trkpt lat="43.94789" lon="5.29271">
        <ele>310.09132165285</ele>
        <time>2021-07-13T16:02:39.490Z</time>
      </trkpt>
      <trkpt lat="43.94783" lon="5.29271">
        <ele>308.10991882512</ele>
        <time>2021-07-13T16:02:44.614Z</time>
      </trkpt>
      <trkpt lat="43.94776" lon="5.29275">
        <ele>306.21480826636</ele>
        <time>2021-07-13T16:02:49.741Z</time>
      </trkpt>
      <trkpt lat="43.9476" lon="5.29273">
        <ele>304.30754209988</ele>
        <time>2021-07-13T16:02:54.873Z</time>
      </trkpt>
      <trkpt lat="43.9473" lon="5.29246">
        <ele>302.26529344467</ele>
        <time>2021-07-13T16:03:00.017Z</time>
      </trkpt>
      <trkpt lat="43.94725" lon="5.29248">
        <ele>300.67158967479</ele>
        <time>2021-07-13T16:03:05.163Z</time>
      </trkpt>
      <trkpt lat="43.9472" lon="5.29247">
        <ele>299.19584221157</ele>
        <time>2021-07-13T16:03:10.311Z</time>
      </trkpt>
      <trkpt lat="43.94715" lon="5.29245">
        <ele>297.8303749613</ele>
        <time>2021-07-13T16:03:15.460Z</time>
      </trkpt>
      <trkpt lat="43.947" lon="5.29232">
        <ele>296.47411610384</ele>
        <time>2021-07-13T16:03:20.615Z</time>
      </trkpt>
      <trkpt lat="43.94693" lon="5.29229">
        <ele>295.30170994826</ele>
        <time>2021-07-13T16:03:25.773Z</time>
      </trkpt>
      <trkpt lat="43.94687" lon="5.29231">
        <ele>294.17415246053</ele>
        <time>2021-07-13T16:03:30.933Z</time>
      </trkpt>
      <trkpt lat="43.9468" lon="5.29238">
        <ele>293.07632234079</ele>
        <time>2021-07-13T16:03:36.096Z</time>
      </trkpt>
      <trkpt lat="43.94676" lon="5.29241">
        <ele>292.04595516203</ele>
        <time>2021-07-13T16:03:41.260Z</time>
      </trkpt>
      <trkpt lat="43.94672" lon="5.29241">
        <ele>291.04269282998</ele>
        <time>2021-07-13T16:03:46.426Z</time>
      </trkpt>
      <trkpt lat="43.94634" lon="5.29228">
        <ele>289.81648696959</ele>
        <time>2021-07-13T16:03:51.604Z</time>
      </trkpt>
      <trkpt lat="43.94621" lon="5.29228">
        <ele>288.76254375495</ele>
        <time>2021-07-13T16:03:56.787Z</time>
      </trkpt>
      <trkpt lat="43.94613" lon="5.29232">
        <ele>287.78311221806</ele>
        <time>2021-07-13T16:04:01.973Z</time>
      </trkpt>
      <trkpt lat="43.94593" lon="5.29267">
        <ele>286.82002375467</ele>
        <time>2021-07-13T16:04:07.169Z</time>
      </trkpt>
      <trkpt lat="43.94584" lon="5.29276">
        <ele>285.85705909752</ele>
        <time>2021-07-13T16:04:12.369Z</time>
      </trkpt>
      <trkpt lat="43.94556" lon="5.29286">
        <ele>284.79938372377</ele>
        <time>2021-07-13T16:04:17.579Z</time>
      </trkpt>
      <trkpt lat="43.94546" lon="5.29287">
        <ele>283.9850260969</ele>
        <time>2021-07-13T16:04:22.792Z</time>
      </trkpt>
      <trkpt lat="43.94539" lon="5.29284">
        <ele>283.24682404691</ele>
        <time>2021-07-13T16:04:28.008Z</time>
      </trkpt>
      <trkpt lat="43.94534" lon="5.29284">
        <ele>282.55413903959</ele>
        <time>2021-07-13T16:04:33.225Z</time>
      </trkpt>
      <trkpt lat="43.9453" lon="5.29288">
        <ele>281.89410895539</ele>
        <time>2021-07-13T16:04:38.444Z</time>
      </trkpt>
      <trkpt lat="43.94534" lon="5.29305">
        <ele>281.33154200039</ele>
        <time>2021-07-13T16:04:43.667Z</time>
      </trkpt>
      <trkpt lat="43.94536" lon="5.29324">
        <ele>280.76760303806</ele>
        <time>2021-07-13T16:04:48.895Z</time>
      </trkpt>
      <trkpt lat="43.94533" lon="5.29334">
        <ele>280.27978835196</ele>
        <time>2021-07-13T16:04:54.125Z</time>
      </trkpt>
      <trkpt lat="43.94516" lon="5.29389">
        <ele>279.81613098667</ele>
        <time>2021-07-13T16:04:59.370Z</time>
      </trkpt>
      <trkpt lat="43.94519" lon="5.29395">
        <ele>279.76339909422</ele>
        <time>2021-07-13T16:05:04.617Z</time>
      </trkpt>
      <trkpt lat="43.94522" lon="5.29404">
        <ele>279.77125776694</ele>
        <time>2021-07-13T16:05:09.866Z</time>
      </trkpt>
      <trkpt lat="43.94526" lon="5.29405">
        <ele>279.80490255236</ele>
        <time>2021-07-13T16:05:15.116Z</time>
      </trkpt>
      <trkpt lat="43.94529" lon="5.29408">
        <ele>279.85421534873</ele>
        <time>2021-07-13T16:05:20.367Z</time>
      </trkpt>
    </trkseg>
  </trk>
</gpx>